<?xml version="1.0" encoding="UTF-8"?>
<gpx creator="Wikiloc - https://www.wikiloc.com" version="1.1" xmlns="http://www.topografix.com/GPX/1/1" xmlns:xsi="http://www.w3.org/2001/XMLSchema-instance" xsi:schemaLocation="http://www.topografix.com/GPX/1/1 http://www.topografix.com/GPX/1/1/gpx.xsd">
  <wpt lat="38.818680" lon="-6.218180">
    <ele>289.0</ele>
    <time>2009-10-10T09:01:06Z</time>
    <name>El Pilar</name>
    <cmt></cmt>
    <desc></desc>
  </wpt>
  <wpt lat="38.817320" lon="-6.219270">
    <ele>291.0</ele>
    <time>2009-10-10T09:06:09Z</time>
    <name>Ermita</name>
    <cmt>Ermita Nª Sª de las Nieves</cmt>
    <desc>Ermita Nª Sª de las Nieves</desc>
  </wpt>
  <wpt lat="38.811450" lon="-6.221550">
    <ele>270.0</ele>
    <time>2009-10-10T09:16:36Z</time>
    <name>Arroyo</name>
    <cmt>Arroyo de La Calera</cmt>
    <desc>Arroyo de La Calera</desc>
  </wpt>
  <wpt lat="38.799009" lon="-6.223150">
    <ele>435.0</ele>
    <time>2009-10-13T13:46:30Z</time>
    <name>Pinturas Rupes</name>
    <cmt>Pinturas Rupestres "Las Viñas"</cmt>
    <desc>Pinturas Rupestres "Las Viñas"</desc>
  </wpt>
  <wpt lat="38.798710" lon="-6.222490">
    <ele>473.0</ele>
    <time>2009-10-10T10:20:29Z</time>
    <name>Mirador</name>
    <cmt>Cima de La Calderita (mirador)</cmt>
    <desc>Cima de La Calderita (mirador)</desc>
  </wpt>
  <wpt lat="38.817010" lon="-6.213430">
    <ele>330.0</ele>
    <time>2009-10-10T14:08:42Z</time>
    <name>Parroquia</name>
    <cmt>Parroquia San Martín y estatua al Arriero</cmt>
    <desc>Parroquia San Martín y estatua al Arriero</desc>
  </wpt>
  <wpt lat="38.818590" lon="-6.215370">
    <ele>305.0</ele>
    <time>2009-10-10T14:10:00Z</time>
    <name>Plaza del AYTM</name>
    <cmt>Plaza del Ayuntamiento</cmt>
    <desc>Plaza del Ayuntamiento</desc>
  </wpt>
  <wpt lat="38.804000" lon="-6.227750">
    <ele>277.1</ele>
    <time>2009-10-10T09:29:27Z</time>
    <name>PUNTO 04</name>
    <cmt>Arroyo Las Molineras (Los Naranjos)</cmt>
    <desc>Arroyo Las Molineras (Los Naranjos)</desc>
  </wpt>
  <wpt lat="38.796050" lon="-6.213920">
    <ele>531.0</ele>
    <time>2009-10-10T10:51:02Z</time>
    <name>MIRADOR</name>
    <cmt>Puerto de Las Hoyas (mirador)</cmt>
    <desc>Puerto de Las Hoyas (mirador)</desc>
  </wpt>
  <wpt lat="38.791940" lon="-6.189530">
    <ele>402.0</ele>
    <time>2009-10-10T12:26:24Z</time>
    <name>Pinar</name>
    <cmt>Pinar de Los Valencines</cmt>
    <desc>Pinar de Los Valencines</desc>
  </wpt>
  <wpt lat="38.795450" lon="-6.164250">
    <ele>435.0</ele>
    <time>2009-10-10T13:04:37Z</time>
    <name>Casa de D ANDR</name>
    <cmt>Casa de Don Andrés</cmt>
    <desc>Casa de Don Andrés</desc>
  </wpt>
  <wpt lat="38.811180" lon="-6.188530">
    <ele>381.0</ele>
    <time>2009-10-10T13:43:54Z</time>
    <name>Mina</name>
    <cmt>Mina de Tierrablanca</cmt>
    <desc>Mina de Tierrablanca</desc>
  </wpt>
  <trk>
    <name>PR-BA 47 'Peñas Blancas' (La Zarza)</name>
    <cmt>Más información en http://fexme.com/buscar-senderos/</cmt>
    <desc>Más información en http://fexme.com/buscar-senderos/</desc>
    <trkseg>
      <trkpt lat="38.818680" lon="-6.218180">
        <ele>289.0</ele>
        <time>2009-10-10T09:01:06Z</time>
      </trkpt>
      <trkpt lat="38.818710" lon="-6.218200">
        <ele>288.5</ele>
        <time>2009-10-10T09:02:08Z</time>
      </trkpt>
      <trkpt lat="38.818440" lon="-6.218480">
        <ele>289.5</ele>
        <time>2009-10-10T09:03:32Z</time>
      </trkpt>
      <trkpt lat="38.818300" lon="-6.218680">
        <ele>290.4</ele>
        <time>2009-10-10T09:03:59Z</time>
      </trkpt>
      <trkpt lat="38.818090" lon="-6.218920">
        <ele>290.4</ele>
        <time>2009-10-10T09:04:26Z</time>
      </trkpt>
      <trkpt lat="38.817860" lon="-6.219170">
        <ele>289.0</ele>
        <time>2009-10-10T09:04:45Z</time>
      </trkpt>
      <trkpt lat="38.817510" lon="-6.219320">
        <ele>290.0</ele>
        <time>2009-10-10T09:05:11Z</time>
      </trkpt>
      <trkpt lat="38.817350" lon="-6.219380">
        <ele>290.4</ele>
        <time>2009-10-10T09:05:20Z</time>
      </trkpt>
      <trkpt lat="38.817300" lon="-6.219300">
        <ele>290.4</ele>
        <time>2009-10-10T09:05:40Z</time>
      </trkpt>
      <trkpt lat="38.817320" lon="-6.219270">
        <ele>290.9</ele>
        <time>2009-10-10T09:06:09Z</time>
      </trkpt>
      <trkpt lat="38.817190" lon="-6.219160">
        <ele>290.9</ele>
        <time>2009-10-10T09:06:21Z</time>
      </trkpt>
      <trkpt lat="38.817150" lon="-6.219080">
        <ele>291.4</ele>
        <time>2009-10-10T09:06:26Z</time>
      </trkpt>
      <trkpt lat="38.817120" lon="-6.219070">
        <ele>292.9</ele>
        <time>2009-10-10T09:06:30Z</time>
      </trkpt>
      <trkpt lat="38.816970" lon="-6.218870">
        <ele>294.3</ele>
        <time>2009-10-10T09:06:45Z</time>
      </trkpt>
      <trkpt lat="38.816870" lon="-6.218850">
        <ele>295.7</ele>
        <time>2009-10-10T09:06:56Z</time>
      </trkpt>
      <trkpt lat="38.816880" lon="-6.218810">
        <ele>296.2</ele>
        <time>2009-10-10T09:06:59Z</time>
      </trkpt>
      <trkpt lat="38.816810" lon="-6.218710">
        <ele>296.7</ele>
        <time>2009-10-10T09:07:04Z</time>
      </trkpt>
      <trkpt lat="38.816660" lon="-6.218620">
        <ele>299.1</ele>
        <time>2009-10-10T09:07:16Z</time>
      </trkpt>
      <trkpt lat="38.816490" lon="-6.218520">
        <ele>301.0</ele>
        <time>2009-10-10T09:07:30Z</time>
      </trkpt>
      <trkpt lat="38.816460" lon="-6.218420">
        <ele>301.0</ele>
        <time>2009-10-10T09:07:35Z</time>
      </trkpt>
      <trkpt lat="38.816210" lon="-6.218190">
        <ele>303.4</ele>
        <time>2009-10-10T09:08:03Z</time>
      </trkpt>
      <trkpt lat="38.816200" lon="-6.218180">
        <ele>303.9</ele>
        <time>2009-10-10T09:08:30Z</time>
      </trkpt>
      <trkpt lat="38.816160" lon="-6.218220">
        <ele>303.4</ele>
        <time>2009-10-10T09:08:37Z</time>
      </trkpt>
      <trkpt lat="38.816110" lon="-6.218280">
        <ele>303.9</ele>
        <time>2009-10-10T09:08:41Z</time>
      </trkpt>
      <trkpt lat="38.815820" lon="-6.218570">
        <ele>303.9</ele>
        <time>2009-10-10T09:09:08Z</time>
      </trkpt>
      <trkpt lat="38.815400" lon="-6.218600">
        <ele>303.9</ele>
        <time>2009-10-10T09:09:38Z</time>
      </trkpt>
      <trkpt lat="38.815230" lon="-6.218630">
        <ele>304.9</ele>
        <time>2009-10-10T09:09:50Z</time>
      </trkpt>
      <trkpt lat="38.814820" lon="-6.218700">
        <ele>303.9</ele>
        <time>2009-10-10T09:10:21Z</time>
      </trkpt>
      <trkpt lat="38.814500" lon="-6.218790">
        <ele>302.0</ele>
        <time>2009-10-10T09:10:45Z</time>
      </trkpt>
      <trkpt lat="38.814380" lon="-6.218780">
        <ele>300.6</ele>
        <time>2009-10-10T09:10:56Z</time>
      </trkpt>
      <trkpt lat="38.814100" lon="-6.218960">
        <ele>300.1</ele>
        <time>2009-10-10T09:11:15Z</time>
      </trkpt>
      <trkpt lat="38.813680" lon="-6.219180">
        <ele>298.6</ele>
        <time>2009-10-10T09:11:46Z</time>
      </trkpt>
      <trkpt lat="38.813480" lon="-6.219260">
        <ele>297.7</ele>
        <time>2009-10-10T09:12:01Z</time>
      </trkpt>
      <trkpt lat="38.813210" lon="-6.219370">
        <ele>296.7</ele>
        <time>2009-10-10T09:12:21Z</time>
      </trkpt>
      <trkpt lat="38.812830" lon="-6.219590">
        <ele>293.3</ele>
        <time>2009-10-10T09:12:51Z</time>
      </trkpt>
      <trkpt lat="38.812560" lon="-6.219920">
        <ele>290.9</ele>
        <time>2009-10-10T09:13:15Z</time>
      </trkpt>
      <trkpt lat="38.812470" lon="-6.219990">
        <ele>290.4</ele>
        <time>2009-10-10T09:13:26Z</time>
      </trkpt>
      <trkpt lat="38.812340" lon="-6.220480">
        <ele>286.6</ele>
        <time>2009-10-10T09:13:56Z</time>
      </trkpt>
      <trkpt lat="38.812320" lon="-6.220560">
        <ele>286.6</ele>
        <time>2009-10-10T09:14:01Z</time>
      </trkpt>
      <trkpt lat="38.812270" lon="-6.220780">
        <ele>286.6</ele>
        <time>2009-10-10T09:14:36Z</time>
      </trkpt>
      <trkpt lat="38.812270" lon="-6.220810">
        <ele>287.6</ele>
        <time>2009-10-10T09:15:18Z</time>
      </trkpt>
      <trkpt lat="38.812170" lon="-6.220930">
        <ele>282.8</ele>
        <time>2009-10-10T09:15:32Z</time>
      </trkpt>
      <trkpt lat="38.812130" lon="-6.220970">
        <ele>281.8</ele>
        <time>2009-10-10T09:15:37Z</time>
      </trkpt>
      <trkpt lat="38.811750" lon="-6.221300">
        <ele>276.5</ele>
        <time>2009-10-10T09:16:07Z</time>
      </trkpt>
      <trkpt lat="38.811630" lon="-6.221480">
        <ele>273.2</ele>
        <time>2009-10-10T09:16:21Z</time>
      </trkpt>
      <trkpt lat="38.811450" lon="-6.221550">
        <ele>270.3</ele>
        <time>2009-10-10T09:16:36Z</time>
      </trkpt>
      <trkpt lat="38.811320" lon="-6.221650">
        <ele>270.8</ele>
        <time>2009-10-10T09:16:57Z</time>
      </trkpt>
      <trkpt lat="38.810910" lon="-6.221930">
        <ele>271.2</ele>
        <time>2009-10-10T09:17:30Z</time>
      </trkpt>
      <trkpt lat="38.810860" lon="-6.221980">
        <ele>271.2</ele>
        <time>2009-10-10T09:17:36Z</time>
      </trkpt>
      <trkpt lat="38.810640" lon="-6.222100">
        <ele>272.2</ele>
        <time>2009-10-10T09:17:56Z</time>
      </trkpt>
      <trkpt lat="38.810510" lon="-6.222440">
        <ele>273.6</ele>
        <time>2009-10-10T09:18:20Z</time>
      </trkpt>
      <trkpt lat="38.810450" lon="-6.222750">
        <ele>275.6</ele>
        <time>2009-10-10T09:18:36Z</time>
      </trkpt>
      <trkpt lat="38.810310" lon="-6.223180">
        <ele>278.4</ele>
        <time>2009-10-10T09:19:03Z</time>
      </trkpt>
      <trkpt lat="38.810170" lon="-6.223620">
        <ele>281.3</ele>
        <time>2009-10-10T09:19:33Z</time>
      </trkpt>
      <trkpt lat="38.810090" lon="-6.223810">
        <ele>281.8</ele>
        <time>2009-10-10T09:19:45Z</time>
      </trkpt>
      <trkpt lat="38.809800" lon="-6.224240">
        <ele>283.7</ele>
        <time>2009-10-10T09:20:20Z</time>
      </trkpt>
      <trkpt lat="38.809640" lon="-6.224420">
        <ele>284.2</ele>
        <time>2009-10-10T09:20:35Z</time>
      </trkpt>
      <trkpt lat="38.809430" lon="-6.224660">
        <ele>285.7</ele>
        <time>2009-10-10T09:21:01Z</time>
      </trkpt>
      <trkpt lat="38.809330" lon="-6.224680">
        <ele>286.6</ele>
        <time>2009-10-10T09:21:10Z</time>
      </trkpt>
      <trkpt lat="38.809120" lon="-6.224780">
        <ele>289.0</ele>
        <time>2009-10-10T09:21:31Z</time>
      </trkpt>
      <trkpt lat="38.808980" lon="-6.224880">
        <ele>291.4</ele>
        <time>2009-10-10T09:21:45Z</time>
      </trkpt>
      <trkpt lat="38.808800" lon="-6.225170">
        <ele>293.8</ele>
        <time>2009-10-10T09:22:11Z</time>
      </trkpt>
      <trkpt lat="38.808620" lon="-6.225530">
        <ele>298.2</ele>
        <time>2009-10-10T09:22:35Z</time>
      </trkpt>
      <trkpt lat="38.808450" lon="-6.225950">
        <ele>300.6</ele>
        <time>2009-10-10T09:23:05Z</time>
      </trkpt>
      <trkpt lat="38.808120" lon="-6.226280">
        <ele>300.6</ele>
        <time>2009-10-10T09:23:36Z</time>
      </trkpt>
      <trkpt lat="38.807850" lon="-6.226550">
        <ele>300.1</ele>
        <time>2009-10-10T09:24:06Z</time>
      </trkpt>
      <trkpt lat="38.807540" lon="-6.226900">
        <ele>299.6</ele>
        <time>2009-10-10T09:24:41Z</time>
      </trkpt>
      <trkpt lat="38.807400" lon="-6.226990">
        <ele>299.6</ele>
        <time>2009-10-10T09:24:50Z</time>
      </trkpt>
      <trkpt lat="38.807300" lon="-6.227090">
        <ele>298.6</ele>
        <time>2009-10-10T09:25:01Z</time>
      </trkpt>
      <trkpt lat="38.806980" lon="-6.227400">
        <ele>297.2</ele>
        <time>2009-10-10T09:25:31Z</time>
      </trkpt>
      <trkpt lat="38.806830" lon="-6.227450">
        <ele>296.7</ele>
        <time>2009-10-10T09:25:40Z</time>
      </trkpt>
      <trkpt lat="38.806380" lon="-6.227690">
        <ele>294.3</ele>
        <time>2009-10-10T09:26:15Z</time>
      </trkpt>
      <trkpt lat="38.806010" lon="-6.227720">
        <ele>290.0</ele>
        <time>2009-10-10T09:26:41Z</time>
      </trkpt>
      <trkpt lat="38.805830" lon="-6.227740">
        <ele>289.0</ele>
        <time>2009-10-10T09:26:56Z</time>
      </trkpt>
      <trkpt lat="38.805430" lon="-6.227740">
        <ele>286.6</ele>
        <time>2009-10-10T09:27:31Z</time>
      </trkpt>
      <trkpt lat="38.805360" lon="-6.227770">
        <ele>286.1</ele>
        <time>2009-10-10T09:27:35Z</time>
      </trkpt>
      <trkpt lat="38.805110" lon="-6.227990">
        <ele>283.3</ele>
        <time>2009-10-10T09:27:55Z</time>
      </trkpt>
      <trkpt lat="38.804960" lon="-6.228050">
        <ele>281.8</ele>
        <time>2009-10-10T09:28:06Z</time>
      </trkpt>
      <trkpt lat="38.804840" lon="-6.228080">
        <ele>279.9</ele>
        <time>2009-10-10T09:28:16Z</time>
      </trkpt>
      <trkpt lat="38.804520" lon="-6.227980">
        <ele>279.4</ele>
        <time>2009-10-10T09:28:37Z</time>
      </trkpt>
      <trkpt lat="38.804200" lon="-6.227760">
        <ele>278.9</ele>
        <time>2009-10-10T09:29:03Z</time>
      </trkpt>
      <trkpt lat="38.804000" lon="-6.227750">
        <ele>277.5</ele>
        <time>2009-10-10T09:29:27Z</time>
      </trkpt>
      <trkpt lat="38.803970" lon="-6.227670">
        <ele>277.5</ele>
        <time>2009-10-10T09:30:01Z</time>
      </trkpt>
      <trkpt lat="38.803970" lon="-6.227680">
        <ele>277.5</ele>
        <time>2009-10-10T09:30:12Z</time>
      </trkpt>
      <trkpt lat="38.803920" lon="-6.227690">
        <ele>276.5</ele>
        <time>2009-10-10T09:30:27Z</time>
      </trkpt>
      <trkpt lat="38.803860" lon="-6.227670">
        <ele>277.5</ele>
        <time>2009-10-10T09:32:36Z</time>
      </trkpt>
      <trkpt lat="38.803590" lon="-6.227820">
        <ele>279.9</ele>
        <time>2009-10-10T09:33:11Z</time>
      </trkpt>
      <trkpt lat="38.803450" lon="-6.227900">
        <ele>282.8</ele>
        <time>2009-10-10T09:33:52Z</time>
      </trkpt>
      <trkpt lat="38.803350" lon="-6.227940">
        <ele>283.7</ele>
        <time>2009-10-10T09:34:01Z</time>
      </trkpt>
      <trkpt lat="38.803250" lon="-6.227970">
        <ele>286.6</ele>
        <time>2009-10-10T09:34:12Z</time>
      </trkpt>
      <trkpt lat="38.803100" lon="-6.228030">
        <ele>289.0</ele>
        <time>2009-10-10T09:34:27Z</time>
      </trkpt>
      <trkpt lat="38.802950" lon="-6.228020">
        <ele>290.4</ele>
        <time>2009-10-10T09:34:42Z</time>
      </trkpt>
      <trkpt lat="38.802780" lon="-6.228010">
        <ele>293.8</ele>
        <time>2009-10-10T09:34:57Z</time>
      </trkpt>
      <trkpt lat="38.802610" lon="-6.227960">
        <ele>297.7</ele>
        <time>2009-10-10T09:35:11Z</time>
      </trkpt>
      <trkpt lat="38.802360" lon="-6.227780">
        <ele>302.5</ele>
        <time>2009-10-10T09:35:47Z</time>
      </trkpt>
      <trkpt lat="38.802120" lon="-6.227580">
        <ele>305.3</ele>
        <time>2009-10-10T09:36:12Z</time>
      </trkpt>
      <trkpt lat="38.802000" lon="-6.227470">
        <ele>309.2</ele>
        <time>2009-10-10T09:36:27Z</time>
      </trkpt>
      <trkpt lat="38.801920" lon="-6.227380">
        <ele>310.2</ele>
        <time>2009-10-10T09:36:36Z</time>
      </trkpt>
      <trkpt lat="38.801790" lon="-6.227280">
        <ele>312.6</ele>
        <time>2009-10-10T09:36:51Z</time>
      </trkpt>
      <trkpt lat="38.801690" lon="-6.227240">
        <ele>314.5</ele>
        <time>2009-10-10T09:37:02Z</time>
      </trkpt>
      <trkpt lat="38.801480" lon="-6.227050">
        <ele>318.8</ele>
        <time>2009-10-10T09:37:26Z</time>
      </trkpt>
      <trkpt lat="38.801420" lon="-6.226980">
        <ele>322.7</ele>
        <time>2009-10-10T09:37:37Z</time>
      </trkpt>
      <trkpt lat="38.801390" lon="-6.226960">
        <ele>322.7</ele>
        <time>2009-10-10T09:37:41Z</time>
      </trkpt>
      <trkpt lat="38.801180" lon="-6.226760">
        <ele>326.5</ele>
        <time>2009-10-10T09:38:11Z</time>
      </trkpt>
      <trkpt lat="38.801120" lon="-6.226740">
        <ele>327.5</ele>
        <time>2009-10-10T09:38:22Z</time>
      </trkpt>
      <trkpt lat="38.800980" lon="-6.226620">
        <ele>330.8</ele>
        <time>2009-10-10T09:38:38Z</time>
      </trkpt>
      <trkpt lat="38.800830" lon="-6.226700">
        <ele>333.7</ele>
        <time>2009-10-10T09:38:50Z</time>
      </trkpt>
      <trkpt lat="38.800740" lon="-6.226780">
        <ele>335.6</ele>
        <time>2009-10-10T09:39:23Z</time>
      </trkpt>
      <trkpt lat="38.800550" lon="-6.226850">
        <ele>339.0</ele>
        <time>2009-10-10T09:39:52Z</time>
      </trkpt>
      <trkpt lat="38.800460" lon="-6.226860">
        <ele>340.9</ele>
        <time>2009-10-10T09:40:03Z</time>
      </trkpt>
      <trkpt lat="38.800310" lon="-6.226910">
        <ele>344.8</ele>
        <time>2009-10-10T09:40:22Z</time>
      </trkpt>
      <trkpt lat="38.800140" lon="-6.226950">
        <ele>348.6</ele>
        <time>2009-10-10T09:40:48Z</time>
      </trkpt>
      <trkpt lat="38.799920" lon="-6.226890">
        <ele>352.0</ele>
        <time>2009-10-10T09:41:13Z</time>
      </trkpt>
      <trkpt lat="38.799890" lon="-6.226830">
        <ele>352.0</ele>
        <time>2009-10-10T09:41:17Z</time>
      </trkpt>
      <trkpt lat="38.799870" lon="-6.226720">
        <ele>355.8</ele>
        <time>2009-10-10T09:41:28Z</time>
      </trkpt>
      <trkpt lat="38.799820" lon="-6.226480">
        <ele>358.2</ele>
        <time>2009-10-10T09:41:47Z</time>
      </trkpt>
      <trkpt lat="38.799750" lon="-6.226310">
        <ele>362.1</ele>
        <time>2009-10-10T09:42:07Z</time>
      </trkpt>
      <trkpt lat="38.799680" lon="-6.226090">
        <ele>365.9</ele>
        <time>2009-10-10T09:42:33Z</time>
      </trkpt>
      <trkpt lat="38.799710" lon="-6.226060">
        <ele>366.9</ele>
        <time>2009-10-10T09:42:37Z</time>
      </trkpt>
      <trkpt lat="38.799750" lon="-6.225850">
        <ele>367.8</ele>
        <time>2009-10-10T09:42:53Z</time>
      </trkpt>
      <trkpt lat="38.799800" lon="-6.225580">
        <ele>370.7</ele>
        <time>2009-10-10T09:43:17Z</time>
      </trkpt>
      <trkpt lat="38.799840" lon="-6.225530">
        <ele>371.2</ele>
        <time>2009-10-10T09:43:32Z</time>
      </trkpt>
      <trkpt lat="38.799830" lon="-6.225180">
        <ele>373.6</ele>
        <time>2009-10-10T09:43:58Z</time>
      </trkpt>
      <trkpt lat="38.799780" lon="-6.225090">
        <ele>375.1</ele>
        <time>2009-10-10T09:44:07Z</time>
      </trkpt>
      <trkpt lat="38.799810" lon="-6.224920">
        <ele>378.4</ele>
        <time>2009-10-10T09:44:22Z</time>
      </trkpt>
      <trkpt lat="38.799780" lon="-6.224740">
        <ele>379.4</ele>
        <time>2009-10-10T09:44:37Z</time>
      </trkpt>
      <trkpt lat="38.799710" lon="-6.224660">
        <ele>383.2</ele>
        <time>2009-10-10T09:44:48Z</time>
      </trkpt>
      <trkpt lat="38.799700" lon="-6.224530">
        <ele>386.1</ele>
        <time>2009-10-10T09:44:57Z</time>
      </trkpt>
      <trkpt lat="38.799610" lon="-6.224460">
        <ele>390.9</ele>
        <time>2009-10-10T09:45:23Z</time>
      </trkpt>
      <trkpt lat="38.799640" lon="-6.224440">
        <ele>390.9</ele>
        <time>2009-10-10T09:46:08Z</time>
      </trkpt>
      <trkpt lat="38.799680" lon="-6.224390">
        <ele>393.8</ele>
        <time>2009-10-10T09:46:37Z</time>
      </trkpt>
      <trkpt lat="38.799660" lon="-6.224380">
        <ele>393.3</ele>
        <time>2009-10-10T09:47:42Z</time>
      </trkpt>
      <trkpt lat="38.799570" lon="-6.224250">
        <ele>397.6</ele>
        <time>2009-10-10T09:47:58Z</time>
      </trkpt>
      <trkpt lat="38.799580" lon="-6.224090">
        <ele>400.0</ele>
        <time>2009-10-10T09:48:28Z</time>
      </trkpt>
      <trkpt lat="38.799530" lon="-6.223940">
        <ele>402.0</ele>
        <time>2009-10-10T09:48:37Z</time>
      </trkpt>
      <trkpt lat="38.799540" lon="-6.223960">
        <ele>402.9</ele>
        <time>2009-10-10T09:48:40Z</time>
      </trkpt>
      <trkpt lat="38.799550" lon="-6.223860">
        <ele>405.8</ele>
        <time>2009-10-10T09:48:51Z</time>
      </trkpt>
      <trkpt lat="38.799560" lon="-6.223810">
        <ele>406.3</ele>
        <time>2009-10-10T09:49:17Z</time>
      </trkpt>
      <trkpt lat="38.799450" lon="-6.223590">
        <ele>410.6</ele>
        <time>2009-10-10T09:49:42Z</time>
      </trkpt>
      <trkpt lat="38.799400" lon="-6.223600">
        <ele>415.9</ele>
        <time>2009-10-10T09:49:57Z</time>
      </trkpt>
      <trkpt lat="38.799360" lon="-6.223510">
        <ele>418.3</ele>
        <time>2009-10-10T09:50:06Z</time>
      </trkpt>
      <trkpt lat="38.799290" lon="-6.223410">
        <ele>419.7</ele>
        <time>2009-10-10T09:50:16Z</time>
      </trkpt>
      <trkpt lat="38.799370" lon="-6.223210">
        <ele>423.6</ele>
        <time>2009-10-10T09:50:36Z</time>
      </trkpt>
      <trkpt lat="38.799400" lon="-6.223080">
        <ele>427.0</ele>
        <time>2009-10-10T09:50:51Z</time>
      </trkpt>
      <trkpt lat="38.799360" lon="-6.223020">
        <ele>428.4</ele>
        <time>2009-10-10T09:50:56Z</time>
      </trkpt>
      <trkpt lat="38.799370" lon="-6.222910">
        <ele>435.6</ele>
        <time>2009-10-10T09:51:17Z</time>
      </trkpt>
      <trkpt lat="38.799430" lon="-6.222920">
        <ele>436.6</ele>
        <time>2009-10-10T09:51:26Z</time>
      </trkpt>
      <trkpt lat="38.799380" lon="-6.222840">
        <ele>435.1</ele>
        <time>2009-10-10T09:51:57Z</time>
      </trkpt>
      <trkpt lat="38.799340" lon="-6.222800">
        <ele>437.5</ele>
        <time>2009-10-10T09:53:22Z</time>
      </trkpt>
      <trkpt lat="38.799300" lon="-6.222790">
        <ele>438.0</ele>
        <time>2009-10-10T09:53:32Z</time>
      </trkpt>
      <trkpt lat="38.799250" lon="-6.222760">
        <ele>444.3</ele>
        <time>2009-10-10T10:04:35Z</time>
      </trkpt>
      <trkpt lat="38.799220" lon="-6.222790">
        <ele>443.8</ele>
        <time>2009-10-10T10:05:30Z</time>
      </trkpt>
      <trkpt lat="38.799160" lon="-6.222820">
        <ele>442.4</ele>
        <time>2009-10-10T10:09:45Z</time>
      </trkpt>
      <trkpt lat="38.799290" lon="-6.222560">
        <ele>447.6</ele>
        <time>2009-10-10T10:10:15Z</time>
      </trkpt>
      <trkpt lat="38.799300" lon="-6.222540">
        <ele>448.1</ele>
        <time>2009-10-10T10:10:20Z</time>
      </trkpt>
      <trkpt lat="38.799210" lon="-6.222450">
        <ele>452.4</ele>
        <time>2009-10-10T10:10:39Z</time>
      </trkpt>
      <trkpt lat="38.799200" lon="-6.222330">
        <ele>456.3</ele>
        <time>2009-10-10T10:10:55Z</time>
      </trkpt>
      <trkpt lat="38.799160" lon="-6.222200">
        <ele>459.2</ele>
        <time>2009-10-10T10:11:10Z</time>
      </trkpt>
      <trkpt lat="38.799130" lon="-6.222160">
        <ele>461.1</ele>
        <time>2009-10-10T10:11:14Z</time>
      </trkpt>
      <trkpt lat="38.799160" lon="-6.222100">
        <ele>461.6</ele>
        <time>2009-10-10T10:11:45Z</time>
      </trkpt>
      <trkpt lat="38.799110" lon="-6.222240">
        <ele>463.0</ele>
        <time>2009-10-10T10:12:24Z</time>
      </trkpt>
      <trkpt lat="38.799050" lon="-6.222390">
        <ele>465.4</ele>
        <time>2009-10-10T10:12:39Z</time>
      </trkpt>
      <trkpt lat="38.799010" lon="-6.222410">
        <ele>465.4</ele>
        <time>2009-10-10T10:13:49Z</time>
      </trkpt>
      <trkpt lat="38.799030" lon="-6.222380">
        <ele>465.9</ele>
        <time>2009-10-10T10:15:00Z</time>
      </trkpt>
      <trkpt lat="38.798970" lon="-6.222380">
        <ele>465.9</ele>
        <time>2009-10-10T10:15:44Z</time>
      </trkpt>
      <trkpt lat="38.798960" lon="-6.222430">
        <ele>464.9</ele>
        <time>2009-10-10T10:16:04Z</time>
      </trkpt>
      <trkpt lat="38.798930" lon="-6.222570">
        <ele>466.4</ele>
        <time>2009-10-10T10:16:19Z</time>
      </trkpt>
      <trkpt lat="38.798910" lon="-6.222490">
        <ele>465.9</ele>
        <time>2009-10-10T10:17:00Z</time>
      </trkpt>
      <trkpt lat="38.798890" lon="-6.222550">
        <ele>469.7</ele>
        <time>2009-10-10T10:17:44Z</time>
      </trkpt>
      <trkpt lat="38.798870" lon="-6.222500">
        <ele>470.7</ele>
        <time>2009-10-10T10:17:50Z</time>
      </trkpt>
      <trkpt lat="38.798760" lon="-6.222410">
        <ele>473.6</ele>
        <time>2009-10-10T10:19:24Z</time>
      </trkpt>
      <trkpt lat="38.798760" lon="-6.222500">
        <ele>472.6</ele>
        <time>2009-10-10T10:19:30Z</time>
      </trkpt>
      <trkpt lat="38.798700" lon="-6.222520">
        <ele>472.1</ele>
        <time>2009-10-10T10:20:02Z</time>
      </trkpt>
      <trkpt lat="38.798710" lon="-6.222490">
        <ele>473.1</ele>
        <time>2009-10-10T10:20:29Z</time>
      </trkpt>
      <trkpt lat="38.798730" lon="-6.222440">
        <ele>472.6</ele>
        <time>2009-10-10T10:21:28Z</time>
      </trkpt>
      <trkpt lat="38.798710" lon="-6.222380">
        <ele>472.1</ele>
        <time>2009-10-10T10:22:18Z</time>
      </trkpt>
      <trkpt lat="38.798690" lon="-6.222240">
        <ele>473.6</ele>
        <time>2009-10-10T10:23:08Z</time>
      </trkpt>
      <trkpt lat="38.798650" lon="-6.222120">
        <ele>475.0</ele>
        <time>2009-10-10T10:23:54Z</time>
      </trkpt>
      <trkpt lat="38.798560" lon="-6.221910">
        <ele>476.5</ele>
        <time>2009-10-10T10:24:28Z</time>
      </trkpt>
      <trkpt lat="38.798420" lon="-6.221650">
        <ele>479.4</ele>
        <time>2009-10-10T10:24:59Z</time>
      </trkpt>
      <trkpt lat="38.798390" lon="-6.221540">
        <ele>480.3</ele>
        <time>2009-10-10T10:25:23Z</time>
      </trkpt>
      <trkpt lat="38.798350" lon="-6.221390">
        <ele>480.3</ele>
        <time>2009-10-10T10:26:09Z</time>
      </trkpt>
      <trkpt lat="38.798330" lon="-6.221270">
        <ele>480.8</ele>
        <time>2009-10-10T10:26:19Z</time>
      </trkpt>
      <trkpt lat="38.798300" lon="-6.221070">
        <ele>484.6</ele>
        <time>2009-10-10T10:26:39Z</time>
      </trkpt>
      <trkpt lat="38.798240" lon="-6.220680">
        <ele>486.1</ele>
        <time>2009-10-10T10:27:18Z</time>
      </trkpt>
      <trkpt lat="38.798080" lon="-6.220290">
        <ele>485.6</ele>
        <time>2009-10-10T10:27:59Z</time>
      </trkpt>
      <trkpt lat="38.797920" lon="-6.219900">
        <ele>484.2</ele>
        <time>2009-10-10T10:28:34Z</time>
      </trkpt>
      <trkpt lat="38.797890" lon="-6.219710">
        <ele>482.7</ele>
        <time>2009-10-10T10:28:48Z</time>
      </trkpt>
      <trkpt lat="38.797860" lon="-6.219470">
        <ele>484.2</ele>
        <time>2009-10-10T10:29:18Z</time>
      </trkpt>
      <trkpt lat="38.797870" lon="-6.219480">
        <ele>484.2</ele>
        <time>2009-10-10T10:29:24Z</time>
      </trkpt>
      <trkpt lat="38.797850" lon="-6.219470">
        <ele>483.7</ele>
        <time>2009-10-10T10:29:49Z</time>
      </trkpt>
      <trkpt lat="38.797850" lon="-6.219510">
        <ele>483.7</ele>
        <time>2009-10-10T10:30:19Z</time>
      </trkpt>
      <trkpt lat="38.797900" lon="-6.219440">
        <ele>485.1</ele>
        <time>2009-10-10T10:30:58Z</time>
      </trkpt>
      <trkpt lat="38.797960" lon="-6.219230">
        <ele>490.4</ele>
        <time>2009-10-10T10:31:13Z</time>
      </trkpt>
      <trkpt lat="38.797950" lon="-6.219100">
        <ele>490.9</ele>
        <time>2009-10-10T10:31:24Z</time>
      </trkpt>
      <trkpt lat="38.797960" lon="-6.219000">
        <ele>491.9</ele>
        <time>2009-10-10T10:31:33Z</time>
      </trkpt>
      <trkpt lat="38.797860" lon="-6.218590">
        <ele>489.4</ele>
        <time>2009-10-10T10:32:14Z</time>
      </trkpt>
      <trkpt lat="38.797770" lon="-6.218470">
        <ele>489.0</ele>
        <time>2009-10-10T10:32:29Z</time>
      </trkpt>
      <trkpt lat="38.797530" lon="-6.218150">
        <ele>489.9</ele>
        <time>2009-10-10T10:33:04Z</time>
      </trkpt>
      <trkpt lat="38.797520" lon="-6.218020">
        <ele>491.9</ele>
        <time>2009-10-10T10:33:24Z</time>
      </trkpt>
      <trkpt lat="38.797300" lon="-6.217810">
        <ele>495.2</ele>
        <time>2009-10-10T10:33:54Z</time>
      </trkpt>
      <trkpt lat="38.797290" lon="-6.217690">
        <ele>498.1</ele>
        <time>2009-10-10T10:34:08Z</time>
      </trkpt>
      <trkpt lat="38.797320" lon="-6.217600">
        <ele>500.5</ele>
        <time>2009-10-10T10:34:23Z</time>
      </trkpt>
      <trkpt lat="38.797280" lon="-6.217560">
        <ele>500.5</ele>
        <time>2009-10-10T10:35:33Z</time>
      </trkpt>
      <trkpt lat="38.797300" lon="-6.217600">
        <ele>499.5</ele>
        <time>2009-10-10T10:36:44Z</time>
      </trkpt>
      <trkpt lat="38.797240" lon="-6.217590">
        <ele>500.5</ele>
        <time>2009-10-10T10:37:08Z</time>
      </trkpt>
      <trkpt lat="38.797190" lon="-6.217500">
        <ele>500.5</ele>
        <time>2009-10-10T10:37:24Z</time>
      </trkpt>
      <trkpt lat="38.797010" lon="-6.217380">
        <ele>496.2</ele>
        <time>2009-10-10T10:37:48Z</time>
      </trkpt>
      <trkpt lat="38.796970" lon="-6.217330">
        <ele>493.3</ele>
        <time>2009-10-10T10:38:09Z</time>
      </trkpt>
      <trkpt lat="38.796720" lon="-6.217120">
        <ele>492.8</ele>
        <time>2009-10-10T10:38:33Z</time>
      </trkpt>
      <trkpt lat="38.796590" lon="-6.216940">
        <ele>495.2</ele>
        <time>2009-10-10T10:38:49Z</time>
      </trkpt>
      <trkpt lat="38.796540" lon="-6.216680">
        <ele>497.6</ele>
        <time>2009-10-10T10:39:19Z</time>
      </trkpt>
      <trkpt lat="38.796510" lon="-6.216490">
        <ele>498.6</ele>
        <time>2009-10-10T10:39:39Z</time>
      </trkpt>
      <trkpt lat="38.796440" lon="-6.216330">
        <ele>494.7</ele>
        <time>2009-10-10T10:39:58Z</time>
      </trkpt>
      <trkpt lat="38.796430" lon="-6.216280">
        <ele>494.3</ele>
        <time>2009-10-10T10:40:03Z</time>
      </trkpt>
      <trkpt lat="38.796340" lon="-6.216130">
        <ele>492.3</ele>
        <time>2009-10-10T10:40:18Z</time>
      </trkpt>
      <trkpt lat="38.796260" lon="-6.215740">
        <ele>492.8</ele>
        <time>2009-10-10T10:40:53Z</time>
      </trkpt>
      <trkpt lat="38.796230" lon="-6.215560">
        <ele>492.3</ele>
        <time>2009-10-10T10:41:14Z</time>
      </trkpt>
      <trkpt lat="38.796120" lon="-6.215330">
        <ele>496.2</ele>
        <time>2009-10-10T10:41:43Z</time>
      </trkpt>
      <trkpt lat="38.796100" lon="-6.215300">
        <ele>496.7</ele>
        <time>2009-10-10T10:41:49Z</time>
      </trkpt>
      <trkpt lat="38.796090" lon="-6.215290">
        <ele>497.6</ele>
        <time>2009-10-10T10:41:58Z</time>
      </trkpt>
      <trkpt lat="38.796070" lon="-6.215080">
        <ele>500.5</ele>
        <time>2009-10-10T10:42:28Z</time>
      </trkpt>
      <trkpt lat="38.795980" lon="-6.214860">
        <ele>504.8</ele>
        <time>2009-10-10T10:42:44Z</time>
      </trkpt>
      <trkpt lat="38.795990" lon="-6.214850">
        <ele>506.3</ele>
        <time>2009-10-10T10:45:34Z</time>
      </trkpt>
      <trkpt lat="38.796070" lon="-6.214750">
        <ele>508.7</ele>
        <time>2009-10-10T10:46:19Z</time>
      </trkpt>
      <trkpt lat="38.796020" lon="-6.214570">
        <ele>512.5</ele>
        <time>2009-10-10T10:46:43Z</time>
      </trkpt>
      <trkpt lat="38.796010" lon="-6.214510">
        <ele>513.5</ele>
        <time>2009-10-10T10:46:48Z</time>
      </trkpt>
      <trkpt lat="38.796030" lon="-6.214300">
        <ele>516.8</ele>
        <time>2009-10-10T10:47:03Z</time>
      </trkpt>
      <trkpt lat="38.796060" lon="-6.213970">
        <ele>520.2</ele>
        <time>2009-10-10T10:47:29Z</time>
      </trkpt>
      <trkpt lat="38.796070" lon="-6.213960">
        <ele>520.2</ele>
        <time>2009-10-10T10:47:33Z</time>
      </trkpt>
      <trkpt lat="38.796050" lon="-6.213920">
        <ele>530.8</ele>
        <time>2009-10-10T10:51:02Z</time>
      </trkpt>
      <trkpt lat="38.795960" lon="-6.213950">
        <ele>528.9</ele>
        <time>2009-10-10T10:54:05Z</time>
      </trkpt>
      <trkpt lat="38.795910" lon="-6.213960">
        <ele>529.8</ele>
        <time>2009-10-10T10:54:19Z</time>
      </trkpt>
      <trkpt lat="38.795880" lon="-6.213770">
        <ele>527.4</ele>
        <time>2009-10-10T10:54:49Z</time>
      </trkpt>
      <trkpt lat="38.795770" lon="-6.213550">
        <ele>524.0</ele>
        <time>2009-10-10T10:55:09Z</time>
      </trkpt>
      <trkpt lat="38.795750" lon="-6.213510">
        <ele>523.6</ele>
        <time>2009-10-10T10:55:15Z</time>
      </trkpt>
      <trkpt lat="38.795660" lon="-6.213350">
        <ele>520.7</ele>
        <time>2009-10-10T10:55:35Z</time>
      </trkpt>
      <trkpt lat="38.795590" lon="-6.213280">
        <ele>518.8</ele>
        <time>2009-10-10T10:55:44Z</time>
      </trkpt>
      <trkpt lat="38.795550" lon="-6.213060">
        <ele>514.0</ele>
        <time>2009-10-10T10:55:59Z</time>
      </trkpt>
      <trkpt lat="38.795490" lon="-6.212870">
        <ele>509.6</ele>
        <time>2009-10-10T10:56:20Z</time>
      </trkpt>
      <trkpt lat="38.795480" lon="-6.212740">
        <ele>507.2</ele>
        <time>2009-10-10T10:56:34Z</time>
      </trkpt>
      <trkpt lat="38.795470" lon="-6.212640">
        <ele>503.4</ele>
        <time>2009-10-10T11:02:20Z</time>
      </trkpt>
      <trkpt lat="38.795490" lon="-6.212650">
        <ele>500.0</ele>
        <time>2009-10-10T11:02:35Z</time>
      </trkpt>
      <trkpt lat="38.795550" lon="-6.212670">
        <ele>499.5</ele>
        <time>2009-10-10T11:03:14Z</time>
      </trkpt>
      <trkpt lat="38.795730" lon="-6.212670">
        <ele>497.6</ele>
        <time>2009-10-10T11:03:30Z</time>
      </trkpt>
      <trkpt lat="38.795880" lon="-6.212640">
        <ele>492.3</ele>
        <time>2009-10-10T11:03:49Z</time>
      </trkpt>
      <trkpt lat="38.795980" lon="-6.212660">
        <ele>489.0</ele>
        <time>2009-10-10T11:04:09Z</time>
      </trkpt>
      <trkpt lat="38.796030" lon="-6.212710">
        <ele>486.6</ele>
        <time>2009-10-10T11:04:20Z</time>
      </trkpt>
      <trkpt lat="38.796030" lon="-6.212670">
        <ele>483.2</ele>
        <time>2009-10-10T11:04:44Z</time>
      </trkpt>
      <trkpt lat="38.796100" lon="-6.212660">
        <ele>478.9</ele>
        <time>2009-10-10T11:04:55Z</time>
      </trkpt>
      <trkpt lat="38.796130" lon="-6.212610">
        <ele>477.0</ele>
        <time>2009-10-10T11:04:59Z</time>
      </trkpt>
      <trkpt lat="38.796070" lon="-6.212410">
        <ele>473.6</ele>
        <time>2009-10-10T11:05:14Z</time>
      </trkpt>
      <trkpt lat="38.796070" lon="-6.212280">
        <ele>469.7</ele>
        <time>2009-10-10T11:05:25Z</time>
      </trkpt>
      <trkpt lat="38.796080" lon="-6.212230">
        <ele>469.7</ele>
        <time>2009-10-10T11:05:29Z</time>
      </trkpt>
      <trkpt lat="38.796100" lon="-6.212130">
        <ele>465.9</ele>
        <time>2009-10-10T11:05:45Z</time>
      </trkpt>
      <trkpt lat="38.796270" lon="-6.211970">
        <ele>458.7</ele>
        <time>2009-10-10T11:06:15Z</time>
      </trkpt>
      <trkpt lat="38.796340" lon="-6.211910">
        <ele>455.3</ele>
        <time>2009-10-10T11:06:24Z</time>
      </trkpt>
      <trkpt lat="38.796400" lon="-6.211760">
        <ele>452.9</ele>
        <time>2009-10-10T11:06:39Z</time>
      </trkpt>
      <trkpt lat="38.796510" lon="-6.211720">
        <ele>450.5</ele>
        <time>2009-10-10T11:06:50Z</time>
      </trkpt>
      <trkpt lat="38.796640" lon="-6.211640">
        <ele>446.2</ele>
        <time>2009-10-10T11:07:05Z</time>
      </trkpt>
      <trkpt lat="38.796690" lon="-6.211590">
        <ele>442.8</ele>
        <time>2009-10-10T11:07:14Z</time>
      </trkpt>
      <trkpt lat="38.796730" lon="-6.211480">
        <ele>439.9</ele>
        <time>2009-10-10T11:07:29Z</time>
      </trkpt>
      <trkpt lat="38.796820" lon="-6.211420">
        <ele>435.1</ele>
        <time>2009-10-10T11:07:49Z</time>
      </trkpt>
      <trkpt lat="38.797040" lon="-6.211420">
        <ele>431.3</ele>
        <time>2009-10-10T11:08:10Z</time>
      </trkpt>
      <trkpt lat="38.797100" lon="-6.211340">
        <ele>428.9</ele>
        <time>2009-10-10T11:08:19Z</time>
      </trkpt>
      <trkpt lat="38.797240" lon="-6.211200">
        <ele>423.1</ele>
        <time>2009-10-10T11:08:39Z</time>
      </trkpt>
      <trkpt lat="38.797210" lon="-6.210980">
        <ele>418.3</ele>
        <time>2009-10-10T11:09:00Z</time>
      </trkpt>
      <trkpt lat="38.797220" lon="-6.210930">
        <ele>417.8</ele>
        <time>2009-10-10T11:09:05Z</time>
      </trkpt>
      <trkpt lat="38.797380" lon="-6.210810">
        <ele>412.1</ele>
        <time>2009-10-10T11:09:25Z</time>
      </trkpt>
      <trkpt lat="38.797470" lon="-6.210730">
        <ele>408.7</ele>
        <time>2009-10-10T11:09:40Z</time>
      </trkpt>
      <trkpt lat="38.797570" lon="-6.210620">
        <ele>404.9</ele>
        <time>2009-10-10T11:09:55Z</time>
      </trkpt>
      <trkpt lat="38.797640" lon="-6.210460">
        <ele>401.5</ele>
        <time>2009-10-10T11:10:15Z</time>
      </trkpt>
      <trkpt lat="38.797770" lon="-6.210320">
        <ele>397.2</ele>
        <time>2009-10-10T11:10:30Z</time>
      </trkpt>
      <trkpt lat="38.797860" lon="-6.210290">
        <ele>395.7</ele>
        <time>2009-10-10T11:10:39Z</time>
      </trkpt>
      <trkpt lat="38.798080" lon="-6.210370">
        <ele>390.0</ele>
        <time>2009-10-10T11:11:05Z</time>
      </trkpt>
      <trkpt lat="38.798130" lon="-6.210400">
        <ele>388.0</ele>
        <time>2009-10-10T11:11:44Z</time>
      </trkpt>
      <trkpt lat="38.798160" lon="-6.210390">
        <ele>388.0</ele>
        <time>2009-10-10T11:11:55Z</time>
      </trkpt>
      <trkpt lat="38.798350" lon="-6.210180">
        <ele>383.7</ele>
        <time>2009-10-10T11:12:14Z</time>
      </trkpt>
      <trkpt lat="38.798440" lon="-6.210110">
        <ele>381.3</ele>
        <time>2009-10-10T11:12:25Z</time>
      </trkpt>
      <trkpt lat="38.798490" lon="-6.209990">
        <ele>380.8</ele>
        <time>2009-10-10T11:12:34Z</time>
      </trkpt>
      <trkpt lat="38.798530" lon="-6.209850">
        <ele>376.5</ele>
        <time>2009-10-10T11:12:49Z</time>
      </trkpt>
      <trkpt lat="38.798610" lon="-6.209740">
        <ele>374.6</ele>
        <time>2009-10-10T11:13:00Z</time>
      </trkpt>
      <trkpt lat="38.798700" lon="-6.209620">
        <ele>372.6</ele>
        <time>2009-10-10T11:13:09Z</time>
      </trkpt>
      <trkpt lat="38.799070" lon="-6.209530">
        <ele>369.3</ele>
        <time>2009-10-10T11:13:35Z</time>
      </trkpt>
      <trkpt lat="38.799220" lon="-6.209420">
        <ele>367.4</ele>
        <time>2009-10-10T11:13:50Z</time>
      </trkpt>
      <trkpt lat="38.799430" lon="-6.209300">
        <ele>362.6</ele>
        <time>2009-10-10T11:14:10Z</time>
      </trkpt>
      <trkpt lat="38.799490" lon="-6.209280">
        <ele>362.6</ele>
        <time>2009-10-10T11:14:14Z</time>
      </trkpt>
      <trkpt lat="38.799670" lon="-6.209190">
        <ele>358.2</ele>
        <time>2009-10-10T11:14:29Z</time>
      </trkpt>
      <trkpt lat="38.799720" lon="-6.209150">
        <ele>357.7</ele>
        <time>2009-10-10T11:14:34Z</time>
      </trkpt>
      <trkpt lat="38.799950" lon="-6.209020">
        <ele>353.4</ele>
        <time>2009-10-10T11:14:55Z</time>
      </trkpt>
      <trkpt lat="38.800070" lon="-6.208950">
        <ele>350.6</ele>
        <time>2009-10-10T11:15:04Z</time>
      </trkpt>
      <trkpt lat="38.800210" lon="-6.208820">
        <ele>347.7</ele>
        <time>2009-10-10T11:15:24Z</time>
      </trkpt>
      <trkpt lat="38.800250" lon="-6.208790">
        <ele>346.2</ele>
        <time>2009-10-10T11:15:30Z</time>
      </trkpt>
      <trkpt lat="38.800400" lon="-6.208670">
        <ele>341.4</ele>
        <time>2009-10-10T11:15:50Z</time>
      </trkpt>
      <trkpt lat="38.800460" lon="-6.208630">
        <ele>341.4</ele>
        <time>2009-10-10T11:15:54Z</time>
      </trkpt>
      <trkpt lat="38.800620" lon="-6.208520">
        <ele>339.0</ele>
        <time>2009-10-10T11:16:10Z</time>
      </trkpt>
      <trkpt lat="38.800890" lon="-6.208420">
        <ele>334.7</ele>
        <time>2009-10-10T11:16:29Z</time>
      </trkpt>
      <trkpt lat="38.801050" lon="-6.208440">
        <ele>333.2</ele>
        <time>2009-10-10T11:17:04Z</time>
      </trkpt>
      <trkpt lat="38.801180" lon="-6.208290">
        <ele>330.3</ele>
        <time>2009-10-10T11:19:11Z</time>
      </trkpt>
      <trkpt lat="38.801180" lon="-6.208280">
        <ele>329.9</ele>
        <time>2009-10-10T11:19:38Z</time>
      </trkpt>
      <trkpt lat="38.801180" lon="-6.208280">
        <ele>329.9</ele>
        <time>2009-10-10T11:21:53Z</time>
      </trkpt>
      <trkpt lat="38.801140" lon="-6.208200">
        <ele>330.8</ele>
        <time>2009-10-10T11:22:34Z</time>
      </trkpt>
      <trkpt lat="38.801130" lon="-6.208210">
        <ele>330.8</ele>
        <time>2009-10-10T11:22:48Z</time>
      </trkpt>
      <trkpt lat="38.800990" lon="-6.208140">
        <ele>331.8</ele>
        <time>2009-10-10T11:23:03Z</time>
      </trkpt>
      <trkpt lat="38.800650" lon="-6.207940">
        <ele>333.7</ele>
        <time>2009-10-10T11:23:38Z</time>
      </trkpt>
      <trkpt lat="38.800620" lon="-6.207930">
        <ele>333.7</ele>
        <time>2009-10-10T11:23:44Z</time>
      </trkpt>
      <trkpt lat="38.800400" lon="-6.207690">
        <ele>334.7</ele>
        <time>2009-10-10T11:24:08Z</time>
      </trkpt>
      <trkpt lat="38.800060" lon="-6.207470">
        <ele>337.6</ele>
        <time>2009-10-10T11:24:43Z</time>
      </trkpt>
      <trkpt lat="38.799900" lon="-6.207270">
        <ele>339.5</ele>
        <time>2009-10-10T11:25:03Z</time>
      </trkpt>
      <trkpt lat="38.799630" lon="-6.206770">
        <ele>342.4</ele>
        <time>2009-10-10T11:25:39Z</time>
      </trkpt>
      <trkpt lat="38.799550" lon="-6.206530">
        <ele>343.3</ele>
        <time>2009-10-10T11:25:53Z</time>
      </trkpt>
      <trkpt lat="38.799480" lon="-6.206390">
        <ele>344.3</ele>
        <time>2009-10-10T11:26:04Z</time>
      </trkpt>
      <trkpt lat="38.799380" lon="-6.206260">
        <ele>345.7</ele>
        <time>2009-10-10T11:26:43Z</time>
      </trkpt>
      <trkpt lat="38.799360" lon="-6.206270">
        <ele>345.2</ele>
        <time>2009-10-10T11:28:58Z</time>
      </trkpt>
      <trkpt lat="38.799330" lon="-6.206170">
        <ele>346.7</ele>
        <time>2009-10-10T11:29:16Z</time>
      </trkpt>
      <trkpt lat="38.799130" lon="-6.205850">
        <ele>347.7</ele>
        <time>2009-10-10T11:29:38Z</time>
      </trkpt>
      <trkpt lat="38.798980" lon="-6.205640">
        <ele>348.6</ele>
        <time>2009-10-10T11:29:52Z</time>
      </trkpt>
      <trkpt lat="38.798900" lon="-6.205480">
        <ele>348.6</ele>
        <time>2009-10-10T11:30:03Z</time>
      </trkpt>
      <trkpt lat="38.798800" lon="-6.205240">
        <ele>350.1</ele>
        <time>2009-10-10T11:30:18Z</time>
      </trkpt>
      <trkpt lat="38.798700" lon="-6.205160">
        <ele>350.6</ele>
        <time>2009-10-10T11:30:27Z</time>
      </trkpt>
      <trkpt lat="38.798470" lon="-6.204820">
        <ele>352.0</ele>
        <time>2009-10-10T11:30:53Z</time>
      </trkpt>
      <trkpt lat="38.798390" lon="-6.204540">
        <ele>353.4</ele>
        <time>2009-10-10T11:31:12Z</time>
      </trkpt>
      <trkpt lat="38.798230" lon="-6.204040">
        <ele>354.4</ele>
        <time>2009-10-10T11:31:43Z</time>
      </trkpt>
      <trkpt lat="38.798210" lon="-6.203960">
        <ele>353.9</ele>
        <time>2009-10-10T11:31:47Z</time>
      </trkpt>
      <trkpt lat="38.798130" lon="-6.203740">
        <ele>354.9</ele>
        <time>2009-10-10T11:32:02Z</time>
      </trkpt>
      <trkpt lat="38.797980" lon="-6.203220">
        <ele>357.3</ele>
        <time>2009-10-10T11:32:37Z</time>
      </trkpt>
      <trkpt lat="38.797930" lon="-6.202940">
        <ele>358.2</ele>
        <time>2009-10-10T11:32:52Z</time>
      </trkpt>
      <trkpt lat="38.797910" lon="-6.202560">
        <ele>358.2</ele>
        <time>2009-10-10T11:33:12Z</time>
      </trkpt>
      <trkpt lat="38.797900" lon="-6.202360">
        <ele>359.2</ele>
        <time>2009-10-10T11:33:23Z</time>
      </trkpt>
      <trkpt lat="38.797820" lon="-6.201850">
        <ele>362.1</ele>
        <time>2009-10-10T11:33:58Z</time>
      </trkpt>
      <trkpt lat="38.797810" lon="-6.201460">
        <ele>364.5</ele>
        <time>2009-10-10T11:34:17Z</time>
      </trkpt>
      <trkpt lat="38.797720" lon="-6.200870">
        <ele>365.4</ele>
        <time>2009-10-10T11:34:52Z</time>
      </trkpt>
      <trkpt lat="38.797570" lon="-6.200350">
        <ele>367.4</ele>
        <time>2009-10-10T11:35:23Z</time>
      </trkpt>
      <trkpt lat="38.797570" lon="-6.200010">
        <ele>367.8</ele>
        <time>2009-10-10T11:35:42Z</time>
      </trkpt>
      <trkpt lat="38.797330" lon="-6.199400">
        <ele>369.3</ele>
        <time>2009-10-10T11:36:23Z</time>
      </trkpt>
      <trkpt lat="38.797220" lon="-6.199160">
        <ele>370.2</ele>
        <time>2009-10-10T11:36:37Z</time>
      </trkpt>
      <trkpt lat="38.797270" lon="-6.198850">
        <ele>371.2</ele>
        <time>2009-10-10T11:36:52Z</time>
      </trkpt>
      <trkpt lat="38.797360" lon="-6.198730">
        <ele>370.2</ele>
        <time>2009-10-10T11:37:33Z</time>
      </trkpt>
      <trkpt lat="38.797520" lon="-6.198380">
        <ele>371.2</ele>
        <time>2009-10-10T11:38:02Z</time>
      </trkpt>
      <trkpt lat="38.797650" lon="-6.198170">
        <ele>372.6</ele>
        <time>2009-10-10T11:38:32Z</time>
      </trkpt>
      <trkpt lat="38.797640" lon="-6.198200">
        <ele>372.2</ele>
        <time>2009-10-10T11:38:58Z</time>
      </trkpt>
      <trkpt lat="38.797650" lon="-6.198120">
        <ele>372.2</ele>
        <time>2009-10-10T11:39:41Z</time>
      </trkpt>
      <trkpt lat="38.797650" lon="-6.198120">
        <ele>370.7</ele>
        <time>2009-10-10T11:43:37Z</time>
      </trkpt>
      <trkpt lat="38.797700" lon="-6.198160">
        <ele>368.8</ele>
        <time>2009-10-10T11:47:52Z</time>
      </trkpt>
      <trkpt lat="38.797670" lon="-6.198000">
        <ele>367.4</ele>
        <time>2009-10-10T11:48:22Z</time>
      </trkpt>
      <trkpt lat="38.797690" lon="-6.197930">
        <ele>367.8</ele>
        <time>2009-10-10T11:48:27Z</time>
      </trkpt>
      <trkpt lat="38.797710" lon="-6.197480">
        <ele>367.8</ele>
        <time>2009-10-10T11:48:53Z</time>
      </trkpt>
      <trkpt lat="38.797740" lon="-6.197200">
        <ele>366.9</ele>
        <time>2009-10-10T11:49:08Z</time>
      </trkpt>
      <trkpt lat="38.797740" lon="-6.197060">
        <ele>367.4</ele>
        <time>2009-10-10T11:49:13Z</time>
      </trkpt>
      <trkpt lat="38.797860" lon="-6.196470">
        <ele>366.9</ele>
        <time>2009-10-10T11:49:47Z</time>
      </trkpt>
      <trkpt lat="38.797950" lon="-6.195990">
        <ele>365.9</ele>
        <time>2009-10-10T11:50:14Z</time>
      </trkpt>
      <trkpt lat="38.798450" lon="-6.195660">
        <ele>363.0</ele>
        <time>2009-10-10T11:50:53Z</time>
      </trkpt>
      <trkpt lat="38.798510" lon="-6.195610">
        <ele>363.0</ele>
        <time>2009-10-10T11:50:59Z</time>
      </trkpt>
      <trkpt lat="38.798640" lon="-6.195530">
        <ele>361.6</ele>
        <time>2009-10-10T11:51:08Z</time>
      </trkpt>
      <trkpt lat="38.798840" lon="-6.195460">
        <ele>360.2</ele>
        <time>2009-10-10T11:51:23Z</time>
      </trkpt>
      <trkpt lat="38.798960" lon="-6.195400">
        <ele>359.7</ele>
        <time>2009-10-10T11:51:34Z</time>
      </trkpt>
      <trkpt lat="38.799240" lon="-6.195210">
        <ele>355.3</ele>
        <time>2009-10-10T11:52:09Z</time>
      </trkpt>
      <trkpt lat="38.799240" lon="-6.195220">
        <ele>355.3</ele>
        <time>2009-10-10T11:52:13Z</time>
      </trkpt>
      <trkpt lat="38.799270" lon="-6.195230">
        <ele>354.9</ele>
        <time>2009-10-10T11:52:24Z</time>
      </trkpt>
      <trkpt lat="38.799470" lon="-6.195140">
        <ele>353.9</ele>
        <time>2009-10-10T11:52:44Z</time>
      </trkpt>
      <trkpt lat="38.799640" lon="-6.195020">
        <ele>352.9</ele>
        <time>2009-10-10T11:52:59Z</time>
      </trkpt>
      <trkpt lat="38.799990" lon="-6.194900">
        <ele>351.5</ele>
        <time>2009-10-10T11:53:29Z</time>
      </trkpt>
      <trkpt lat="38.800270" lon="-6.194690">
        <ele>348.1</ele>
        <time>2009-10-10T11:53:54Z</time>
      </trkpt>
      <trkpt lat="38.800410" lon="-6.194600">
        <ele>347.2</ele>
        <time>2009-10-10T11:54:04Z</time>
      </trkpt>
      <trkpt lat="38.800550" lon="-6.194290">
        <ele>345.2</ele>
        <time>2009-10-10T11:54:24Z</time>
      </trkpt>
      <trkpt lat="38.800880" lon="-6.193990">
        <ele>341.4</ele>
        <time>2009-10-10T11:54:54Z</time>
      </trkpt>
      <trkpt lat="38.800970" lon="-6.193800">
        <ele>340.4</ele>
        <time>2009-10-10T11:55:08Z</time>
      </trkpt>
      <trkpt lat="38.801080" lon="-6.193700">
        <ele>340.0</ele>
        <time>2009-10-10T11:55:19Z</time>
      </trkpt>
      <trkpt lat="38.801220" lon="-6.193550">
        <ele>339.5</ele>
        <time>2009-10-10T11:55:34Z</time>
      </trkpt>
      <trkpt lat="38.801450" lon="-6.193240">
        <ele>336.6</ele>
        <time>2009-10-10T11:55:58Z</time>
      </trkpt>
      <trkpt lat="38.801580" lon="-6.193080">
        <ele>334.2</ele>
        <time>2009-10-10T11:56:13Z</time>
      </trkpt>
      <trkpt lat="38.801700" lon="-6.192960">
        <ele>333.2</ele>
        <time>2009-10-10T11:56:24Z</time>
      </trkpt>
      <trkpt lat="38.801790" lon="-6.192870">
        <ele>333.2</ele>
        <time>2009-10-10T11:56:33Z</time>
      </trkpt>
      <trkpt lat="38.801960" lon="-6.192740">
        <ele>330.8</ele>
        <time>2009-10-10T11:56:48Z</time>
      </trkpt>
      <trkpt lat="38.802080" lon="-6.192210">
        <ele>327.0</ele>
        <time>2009-10-10T11:57:18Z</time>
      </trkpt>
      <trkpt lat="38.802420" lon="-6.191620">
        <ele>324.1</ele>
        <time>2009-10-10T11:57:59Z</time>
      </trkpt>
      <trkpt lat="38.803010" lon="-6.191260">
        <ele>320.7</ele>
        <time>2009-10-10T11:58:48Z</time>
      </trkpt>
      <trkpt lat="38.803070" lon="-6.191220">
        <ele>320.7</ele>
        <time>2009-10-10T11:59:59Z</time>
      </trkpt>
      <trkpt lat="38.803070" lon="-6.191290">
        <ele>320.7</ele>
        <time>2009-10-10T12:01:03Z</time>
      </trkpt>
      <trkpt lat="38.803140" lon="-6.191250">
        <ele>319.8</ele>
        <time>2009-10-10T12:01:44Z</time>
      </trkpt>
      <trkpt lat="38.803280" lon="-6.191250">
        <ele>318.8</ele>
        <time>2009-10-10T12:01:59Z</time>
      </trkpt>
      <trkpt lat="38.803780" lon="-6.191360">
        <ele>315.4</ele>
        <time>2009-10-10T12:02:34Z</time>
      </trkpt>
      <trkpt lat="38.803840" lon="-6.191360">
        <ele>315.0</ele>
        <time>2009-10-10T12:02:38Z</time>
      </trkpt>
      <trkpt lat="38.803850" lon="-6.191270">
        <ele>315.4</ele>
        <time>2009-10-10T12:03:33Z</time>
      </trkpt>
      <trkpt lat="38.803890" lon="-6.191240">
        <ele>315.4</ele>
        <time>2009-10-10T12:04:34Z</time>
      </trkpt>
      <trkpt lat="38.803760" lon="-6.190970">
        <ele>316.9</ele>
        <time>2009-10-10T12:06:59Z</time>
      </trkpt>
      <trkpt lat="38.803160" lon="-6.190330">
        <ele>318.3</ele>
        <time>2009-10-10T12:07:54Z</time>
      </trkpt>
      <trkpt lat="38.803110" lon="-6.190300">
        <ele>318.3</ele>
        <time>2009-10-10T12:07:58Z</time>
      </trkpt>
      <trkpt lat="38.803010" lon="-6.190180">
        <ele>318.3</ele>
        <time>2009-10-10T12:08:44Z</time>
      </trkpt>
      <trkpt lat="38.803010" lon="-6.190200">
        <ele>318.8</ele>
        <time>2009-10-10T12:10:03Z</time>
      </trkpt>
      <trkpt lat="38.803010" lon="-6.190180">
        <ele>318.8</ele>
        <time>2009-10-10T12:10:24Z</time>
      </trkpt>
      <trkpt lat="38.802740" lon="-6.190130">
        <ele>319.3</ele>
        <time>2009-10-10T12:10:44Z</time>
      </trkpt>
      <trkpt lat="38.802620" lon="-6.190070">
        <ele>320.7</ele>
        <time>2009-10-10T12:10:53Z</time>
      </trkpt>
      <trkpt lat="38.802550" lon="-6.190060">
        <ele>321.7</ele>
        <time>2009-10-10T12:10:59Z</time>
      </trkpt>
      <trkpt lat="38.802260" lon="-6.189940">
        <ele>326.0</ele>
        <time>2009-10-10T12:11:23Z</time>
      </trkpt>
      <trkpt lat="38.802050" lon="-6.189770">
        <ele>330.3</ele>
        <time>2009-10-10T12:11:43Z</time>
      </trkpt>
      <trkpt lat="38.801850" lon="-6.189780">
        <ele>331.3</ele>
        <time>2009-10-10T12:11:58Z</time>
      </trkpt>
      <trkpt lat="38.801730" lon="-6.189790">
        <ele>332.8</ele>
        <time>2009-10-10T12:12:09Z</time>
      </trkpt>
      <trkpt lat="38.801520" lon="-6.189730">
        <ele>337.1</ele>
        <time>2009-10-10T12:12:24Z</time>
      </trkpt>
      <trkpt lat="38.801280" lon="-6.189800">
        <ele>340.4</ele>
        <time>2009-10-10T12:12:44Z</time>
      </trkpt>
      <trkpt lat="38.801160" lon="-6.189800">
        <ele>343.8</ele>
        <time>2009-10-10T12:12:54Z</time>
      </trkpt>
      <trkpt lat="38.800800" lon="-6.189570">
        <ele>346.7</ele>
        <time>2009-10-10T12:13:23Z</time>
      </trkpt>
      <trkpt lat="38.800600" lon="-6.189430">
        <ele>350.6</ele>
        <time>2009-10-10T12:13:44Z</time>
      </trkpt>
      <trkpt lat="38.800490" lon="-6.189360">
        <ele>352.5</ele>
        <time>2009-10-10T12:13:53Z</time>
      </trkpt>
      <trkpt lat="38.800300" lon="-6.189230">
        <ele>356.3</ele>
        <time>2009-10-10T12:14:13Z</time>
      </trkpt>
      <trkpt lat="38.799940" lon="-6.189010">
        <ele>363.0</ele>
        <time>2009-10-10T12:14:48Z</time>
      </trkpt>
      <trkpt lat="38.799690" lon="-6.189020">
        <ele>366.9</ele>
        <time>2009-10-10T12:15:09Z</time>
      </trkpt>
      <trkpt lat="38.799630" lon="-6.189000">
        <ele>367.4</ele>
        <time>2009-10-10T12:15:14Z</time>
      </trkpt>
      <trkpt lat="38.799510" lon="-6.188990">
        <ele>368.3</ele>
        <time>2009-10-10T12:15:23Z</time>
      </trkpt>
      <trkpt lat="38.799380" lon="-6.188940">
        <ele>369.8</ele>
        <time>2009-10-10T12:15:34Z</time>
      </trkpt>
      <trkpt lat="38.799260" lon="-6.188910">
        <ele>370.7</ele>
        <time>2009-10-10T12:15:44Z</time>
      </trkpt>
      <trkpt lat="38.798770" lon="-6.189000">
        <ele>373.1</ele>
        <time>2009-10-10T12:16:19Z</time>
      </trkpt>
      <trkpt lat="38.798500" lon="-6.189030">
        <ele>374.1</ele>
        <time>2009-10-10T12:16:39Z</time>
      </trkpt>
      <trkpt lat="38.798240" lon="-6.189100">
        <ele>374.6</ele>
        <time>2009-10-10T12:16:58Z</time>
      </trkpt>
      <trkpt lat="38.797650" lon="-6.189220">
        <ele>377.9</ele>
        <time>2009-10-10T12:17:38Z</time>
      </trkpt>
      <trkpt lat="38.797240" lon="-6.189210">
        <ele>379.4</ele>
        <time>2009-10-10T12:18:08Z</time>
      </trkpt>
      <trkpt lat="38.797090" lon="-6.189260">
        <ele>380.3</ele>
        <time>2009-10-10T12:18:19Z</time>
      </trkpt>
      <trkpt lat="38.796630" lon="-6.189350">
        <ele>382.2</ele>
        <time>2009-10-10T12:18:49Z</time>
      </trkpt>
      <trkpt lat="38.796280" lon="-6.189410">
        <ele>384.7</ele>
        <time>2009-10-10T12:19:13Z</time>
      </trkpt>
      <trkpt lat="38.796080" lon="-6.189410">
        <ele>387.1</ele>
        <time>2009-10-10T12:19:29Z</time>
      </trkpt>
      <trkpt lat="38.795880" lon="-6.189420">
        <ele>388.0</ele>
        <time>2009-10-10T12:19:44Z</time>
      </trkpt>
      <trkpt lat="38.795480" lon="-6.189420">
        <ele>388.5</ele>
        <time>2009-10-10T12:20:14Z</time>
      </trkpt>
      <trkpt lat="38.795160" lon="-6.189320">
        <ele>390.0</ele>
        <time>2009-10-10T12:20:38Z</time>
      </trkpt>
      <trkpt lat="38.794800" lon="-6.189300">
        <ele>391.4</ele>
        <time>2009-10-10T12:21:04Z</time>
      </trkpt>
      <trkpt lat="38.794740" lon="-6.189280">
        <ele>392.4</ele>
        <time>2009-10-10T12:21:13Z</time>
      </trkpt>
      <trkpt lat="38.794410" lon="-6.189250">
        <ele>392.8</ele>
        <time>2009-10-10T12:21:39Z</time>
      </trkpt>
      <trkpt lat="38.793930" lon="-6.189170">
        <ele>395.2</ele>
        <time>2009-10-10T12:22:14Z</time>
      </trkpt>
      <trkpt lat="38.793310" lon="-6.189210">
        <ele>396.2</ele>
        <time>2009-10-10T12:22:58Z</time>
      </trkpt>
      <trkpt lat="38.792850" lon="-6.189260">
        <ele>397.6</ele>
        <time>2009-10-10T12:23:33Z</time>
      </trkpt>
      <trkpt lat="38.792440" lon="-6.189320">
        <ele>400.0</ele>
        <time>2009-10-10T12:24:09Z</time>
      </trkpt>
      <trkpt lat="38.792300" lon="-6.189400">
        <ele>400.5</ele>
        <time>2009-10-10T12:24:23Z</time>
      </trkpt>
      <trkpt lat="38.792070" lon="-6.189520">
        <ele>401.0</ele>
        <time>2009-10-10T12:24:53Z</time>
      </trkpt>
      <trkpt lat="38.792040" lon="-6.189550">
        <ele>401.0</ele>
        <time>2009-10-10T12:24:59Z</time>
      </trkpt>
      <trkpt lat="38.791960" lon="-6.189570">
        <ele>402.9</ele>
        <time>2009-10-10T12:25:39Z</time>
      </trkpt>
      <trkpt lat="38.791940" lon="-6.189530">
        <ele>402.0</ele>
        <time>2009-10-10T12:26:24Z</time>
      </trkpt>
      <trkpt lat="38.791940" lon="-6.189550">
        <ele>402.5</ele>
        <time>2009-10-10T12:27:54Z</time>
      </trkpt>
      <trkpt lat="38.791770" lon="-6.189550">
        <ele>403.4</ele>
        <time>2009-10-10T12:28:39Z</time>
      </trkpt>
      <trkpt lat="38.791580" lon="-6.189580">
        <ele>403.9</ele>
        <time>2009-10-10T12:28:53Z</time>
      </trkpt>
      <trkpt lat="38.791310" lon="-6.189520">
        <ele>403.9</ele>
        <time>2009-10-10T12:29:14Z</time>
      </trkpt>
      <trkpt lat="38.790800" lon="-6.189340">
        <ele>403.9</ele>
        <time>2009-10-10T12:29:49Z</time>
      </trkpt>
      <trkpt lat="38.790590" lon="-6.188930">
        <ele>404.4</ele>
        <time>2009-10-10T12:30:18Z</time>
      </trkpt>
      <trkpt lat="38.790610" lon="-6.188760">
        <ele>403.9</ele>
        <time>2009-10-10T12:30:33Z</time>
      </trkpt>
      <trkpt lat="38.790630" lon="-6.187960">
        <ele>404.4</ele>
        <time>2009-10-10T12:31:19Z</time>
      </trkpt>
      <trkpt lat="38.790820" lon="-6.187560">
        <ele>404.4</ele>
        <time>2009-10-10T12:31:44Z</time>
      </trkpt>
      <trkpt lat="38.791150" lon="-6.186930">
        <ele>403.9</ele>
        <time>2009-10-10T12:32:24Z</time>
      </trkpt>
      <trkpt lat="38.791360" lon="-6.186570">
        <ele>402.9</ele>
        <time>2009-10-10T12:32:48Z</time>
      </trkpt>
      <trkpt lat="38.791410" lon="-6.186390">
        <ele>402.5</ele>
        <time>2009-10-10T12:32:59Z</time>
      </trkpt>
      <trkpt lat="38.791500" lon="-6.185650">
        <ele>399.1</ele>
        <time>2009-10-10T12:33:44Z</time>
      </trkpt>
      <trkpt lat="38.791440" lon="-6.185560">
        <ele>398.6</ele>
        <time>2009-10-10T12:33:49Z</time>
      </trkpt>
      <trkpt lat="38.790980" lon="-6.185380">
        <ele>396.2</ele>
        <time>2009-10-10T12:34:24Z</time>
      </trkpt>
      <trkpt lat="38.790790" lon="-6.185310">
        <ele>392.8</ele>
        <time>2009-10-10T12:34:39Z</time>
      </trkpt>
      <trkpt lat="38.790630" lon="-6.185030">
        <ele>391.4</ele>
        <time>2009-10-10T12:34:58Z</time>
      </trkpt>
      <trkpt lat="38.790800" lon="-6.184820">
        <ele>391.9</ele>
        <time>2009-10-10T12:35:18Z</time>
      </trkpt>
      <trkpt lat="38.791250" lon="-6.184190">
        <ele>392.8</ele>
        <time>2009-10-10T12:35:59Z</time>
      </trkpt>
      <trkpt lat="38.791430" lon="-6.183970">
        <ele>391.9</ele>
        <time>2009-10-10T12:36:19Z</time>
      </trkpt>
      <trkpt lat="38.791710" lon="-6.183780">
        <ele>391.9</ele>
        <time>2009-10-10T12:36:39Z</time>
      </trkpt>
      <trkpt lat="38.791870" lon="-6.183670">
        <ele>391.9</ele>
        <time>2009-10-10T12:36:54Z</time>
      </trkpt>
      <trkpt lat="38.792210" lon="-6.183360">
        <ele>391.4</ele>
        <time>2009-10-10T12:37:24Z</time>
      </trkpt>
      <trkpt lat="38.792320" lon="-6.183240">
        <ele>391.9</ele>
        <time>2009-10-10T12:37:33Z</time>
      </trkpt>
      <trkpt lat="38.792670" lon="-6.182800">
        <ele>392.4</ele>
        <time>2009-10-10T12:38:04Z</time>
      </trkpt>
      <trkpt lat="38.792860" lon="-6.182500">
        <ele>392.4</ele>
        <time>2009-10-10T12:38:23Z</time>
      </trkpt>
      <trkpt lat="38.793060" lon="-6.181900">
        <ele>392.4</ele>
        <time>2009-10-10T12:38:58Z</time>
      </trkpt>
      <trkpt lat="38.792910" lon="-6.181340">
        <ele>393.3</ele>
        <time>2009-10-10T12:39:28Z</time>
      </trkpt>
      <trkpt lat="38.792760" lon="-6.180930">
        <ele>393.8</ele>
        <time>2009-10-10T12:39:59Z</time>
      </trkpt>
      <trkpt lat="38.792530" lon="-6.180360">
        <ele>393.8</ele>
        <time>2009-10-10T12:40:26Z</time>
      </trkpt>
      <trkpt lat="38.792270" lon="-6.179810">
        <ele>393.3</ele>
        <time>2009-10-10T12:40:58Z</time>
      </trkpt>
      <trkpt lat="38.792040" lon="-6.179560">
        <ele>393.3</ele>
        <time>2009-10-10T12:41:19Z</time>
      </trkpt>
      <trkpt lat="38.791730" lon="-6.179060">
        <ele>392.4</ele>
        <time>2009-10-10T12:41:59Z</time>
      </trkpt>
      <trkpt lat="38.791770" lon="-6.178800">
        <ele>392.8</ele>
        <time>2009-10-10T12:42:14Z</time>
      </trkpt>
      <trkpt lat="38.791810" lon="-6.178300">
        <ele>393.8</ele>
        <time>2009-10-10T12:42:44Z</time>
      </trkpt>
      <trkpt lat="38.791340" lon="-6.177810">
        <ele>392.4</ele>
        <time>2009-10-10T12:43:24Z</time>
      </trkpt>
      <trkpt lat="38.791020" lon="-6.177600">
        <ele>391.9</ele>
        <time>2009-10-10T12:43:43Z</time>
      </trkpt>
      <trkpt lat="38.790810" lon="-6.177510">
        <ele>390.4</ele>
        <time>2009-10-10T12:43:58Z</time>
      </trkpt>
      <trkpt lat="38.790520" lon="-6.177440">
        <ele>389.0</ele>
        <time>2009-10-10T12:44:18Z</time>
      </trkpt>
      <trkpt lat="38.790560" lon="-6.176970">
        <ele>389.0</ele>
        <time>2009-10-10T12:44:49Z</time>
      </trkpt>
      <trkpt lat="38.790910" lon="-6.176770">
        <ele>389.5</ele>
        <time>2009-10-10T12:45:14Z</time>
      </trkpt>
      <trkpt lat="38.790980" lon="-6.176720">
        <ele>390.0</ele>
        <time>2009-10-10T12:45:19Z</time>
      </trkpt>
      <trkpt lat="38.791110" lon="-6.176640">
        <ele>390.9</ele>
        <time>2009-10-10T12:45:28Z</time>
      </trkpt>
      <trkpt lat="38.791650" lon="-6.176010">
        <ele>391.9</ele>
        <time>2009-10-10T12:46:13Z</time>
      </trkpt>
      <trkpt lat="38.791750" lon="-6.175850">
        <ele>392.4</ele>
        <time>2009-10-10T12:46:24Z</time>
      </trkpt>
      <trkpt lat="38.791910" lon="-6.175230">
        <ele>394.3</ele>
        <time>2009-10-10T12:46:59Z</time>
      </trkpt>
      <trkpt lat="38.791850" lon="-6.174960">
        <ele>395.2</ele>
        <time>2009-10-10T12:47:14Z</time>
      </trkpt>
      <trkpt lat="38.791770" lon="-6.174260">
        <ele>395.2</ele>
        <time>2009-10-10T12:47:49Z</time>
      </trkpt>
      <trkpt lat="38.791700" lon="-6.173720">
        <ele>394.7</ele>
        <time>2009-10-10T12:48:18Z</time>
      </trkpt>
      <trkpt lat="38.791610" lon="-6.173310">
        <ele>394.7</ele>
        <time>2009-10-10T12:48:39Z</time>
      </trkpt>
      <trkpt lat="38.791600" lon="-6.173120">
        <ele>394.3</ele>
        <time>2009-10-10T12:48:48Z</time>
      </trkpt>
      <trkpt lat="38.791590" lon="-6.172860">
        <ele>394.3</ele>
        <time>2009-10-10T12:49:03Z</time>
      </trkpt>
      <trkpt lat="38.791570" lon="-6.172590">
        <ele>394.7</ele>
        <time>2009-10-10T12:49:19Z</time>
      </trkpt>
      <trkpt lat="38.791550" lon="-6.171970">
        <ele>397.2</ele>
        <time>2009-10-10T12:49:53Z</time>
      </trkpt>
      <trkpt lat="38.791540" lon="-6.171870">
        <ele>397.2</ele>
        <time>2009-10-10T12:49:58Z</time>
      </trkpt>
      <trkpt lat="38.791570" lon="-6.171680">
        <ele>397.6</ele>
        <time>2009-10-10T12:50:13Z</time>
      </trkpt>
      <trkpt lat="38.791430" lon="-6.171500">
        <ele>397.6</ele>
        <time>2009-10-10T12:50:48Z</time>
      </trkpt>
      <trkpt lat="38.791440" lon="-6.171490">
        <ele>396.2</ele>
        <time>2009-10-10T12:51:03Z</time>
      </trkpt>
      <trkpt lat="38.791560" lon="-6.171510">
        <ele>396.2</ele>
        <time>2009-10-10T12:51:44Z</time>
      </trkpt>
      <trkpt lat="38.791620" lon="-6.171540">
        <ele>397.2</ele>
        <time>2009-10-10T12:51:53Z</time>
      </trkpt>
      <trkpt lat="38.792110" lon="-6.171590">
        <ele>396.7</ele>
        <time>2009-10-10T12:52:28Z</time>
      </trkpt>
      <trkpt lat="38.792180" lon="-6.171580">
        <ele>397.2</ele>
        <time>2009-10-10T12:52:34Z</time>
      </trkpt>
      <trkpt lat="38.792480" lon="-6.171540">
        <ele>397.6</ele>
        <time>2009-10-10T12:52:54Z</time>
      </trkpt>
      <trkpt lat="38.792760" lon="-6.171510">
        <ele>399.1</ele>
        <time>2009-10-10T12:53:24Z</time>
      </trkpt>
      <trkpt lat="38.792890" lon="-6.171450">
        <ele>399.6</ele>
        <time>2009-10-10T12:53:33Z</time>
      </trkpt>
      <trkpt lat="38.793020" lon="-6.171410">
        <ele>400.0</ele>
        <time>2009-10-10T12:53:44Z</time>
      </trkpt>
      <trkpt lat="38.793490" lon="-6.171400">
        <ele>402.0</ele>
        <time>2009-10-10T12:54:14Z</time>
      </trkpt>
      <trkpt lat="38.793610" lon="-6.171350">
        <ele>402.9</ele>
        <time>2009-10-10T12:54:23Z</time>
      </trkpt>
      <trkpt lat="38.793880" lon="-6.171310">
        <ele>404.4</ele>
        <time>2009-10-10T12:54:58Z</time>
      </trkpt>
      <trkpt lat="38.793900" lon="-6.171220">
        <ele>404.4</ele>
        <time>2009-10-10T12:55:59Z</time>
      </trkpt>
      <trkpt lat="38.793670" lon="-6.170750">
        <ele>404.4</ele>
        <time>2009-10-10T12:56:33Z</time>
      </trkpt>
      <trkpt lat="38.793540" lon="-6.170230">
        <ele>404.9</ele>
        <time>2009-10-10T12:57:02Z</time>
      </trkpt>
      <trkpt lat="38.793500" lon="-6.169970">
        <ele>404.9</ele>
        <time>2009-10-10T12:57:17Z</time>
      </trkpt>
      <trkpt lat="38.793450" lon="-6.169320">
        <ele>405.8</ele>
        <time>2009-10-10T12:57:52Z</time>
      </trkpt>
      <trkpt lat="38.793480" lon="-6.168990">
        <ele>406.3</ele>
        <time>2009-10-10T12:58:18Z</time>
      </trkpt>
      <trkpt lat="38.793570" lon="-6.168760">
        <ele>407.7</ele>
        <time>2009-10-10T12:58:38Z</time>
      </trkpt>
      <trkpt lat="38.793630" lon="-6.168600">
        <ele>408.7</ele>
        <time>2009-10-10T12:58:48Z</time>
      </trkpt>
      <trkpt lat="38.793880" lon="-6.168000">
        <ele>412.1</ele>
        <time>2009-10-10T12:59:23Z</time>
      </trkpt>
      <trkpt lat="38.793910" lon="-6.167910">
        <ele>412.1</ele>
        <time>2009-10-10T12:59:28Z</time>
      </trkpt>
      <trkpt lat="38.794010" lon="-6.167670">
        <ele>412.5</ele>
        <time>2009-10-10T12:59:43Z</time>
      </trkpt>
      <trkpt lat="38.794190" lon="-6.167180">
        <ele>414.0</ele>
        <time>2009-10-10T13:00:13Z</time>
      </trkpt>
      <trkpt lat="38.794340" lon="-6.166880">
        <ele>416.4</ele>
        <time>2009-10-10T13:00:33Z</time>
      </trkpt>
      <trkpt lat="38.794430" lon="-6.166610">
        <ele>418.3</ele>
        <time>2009-10-10T13:00:48Z</time>
      </trkpt>
      <trkpt lat="38.794680" lon="-6.166160">
        <ele>421.2</ele>
        <time>2009-10-10T13:01:17Z</time>
      </trkpt>
      <trkpt lat="38.794840" lon="-6.165830">
        <ele>423.1</ele>
        <time>2009-10-10T13:01:38Z</time>
      </trkpt>
      <trkpt lat="38.794990" lon="-6.165510">
        <ele>425.0</ele>
        <time>2009-10-10T13:01:58Z</time>
      </trkpt>
      <trkpt lat="38.795130" lon="-6.164750">
        <ele>428.9</ele>
        <time>2009-10-10T13:02:37Z</time>
      </trkpt>
      <trkpt lat="38.795190" lon="-6.164260">
        <ele>431.8</ele>
        <time>2009-10-10T13:03:08Z</time>
      </trkpt>
      <trkpt lat="38.795330" lon="-6.164120">
        <ele>435.1</ele>
        <time>2009-10-10T13:03:23Z</time>
      </trkpt>
      <trkpt lat="38.795370" lon="-6.164130">
        <ele>435.1</ele>
        <time>2009-10-10T13:03:27Z</time>
      </trkpt>
      <trkpt lat="38.795430" lon="-6.164140">
        <ele>436.6</ele>
        <time>2009-10-10T13:04:08Z</time>
      </trkpt>
      <trkpt lat="38.795450" lon="-6.164250">
        <ele>435.1</ele>
        <time>2009-10-10T13:04:37Z</time>
      </trkpt>
      <trkpt lat="38.795480" lon="-6.164180">
        <ele>434.6</ele>
        <time>2009-10-10T13:05:12Z</time>
      </trkpt>
      <trkpt lat="38.795500" lon="-6.164230">
        <ele>433.7</ele>
        <time>2009-10-10T13:05:53Z</time>
      </trkpt>
      <trkpt lat="38.795670" lon="-6.164220">
        <ele>434.2</ele>
        <time>2009-10-10T13:06:09Z</time>
      </trkpt>
      <trkpt lat="38.795720" lon="-6.164200">
        <ele>434.2</ele>
        <time>2009-10-10T13:06:27Z</time>
      </trkpt>
      <trkpt lat="38.795940" lon="-6.164310">
        <ele>435.6</ele>
        <time>2009-10-10T13:06:52Z</time>
      </trkpt>
      <trkpt lat="38.796000" lon="-6.164300">
        <ele>436.1</ele>
        <time>2009-10-10T13:08:01Z</time>
      </trkpt>
      <trkpt lat="38.796280" lon="-6.164370">
        <ele>434.2</ele>
        <time>2009-10-10T13:08:21Z</time>
      </trkpt>
      <trkpt lat="38.796450" lon="-6.164400">
        <ele>432.7</ele>
        <time>2009-10-10T13:08:32Z</time>
      </trkpt>
      <trkpt lat="38.796590" lon="-6.164410">
        <ele>432.2</ele>
        <time>2009-10-10T13:09:02Z</time>
      </trkpt>
      <trkpt lat="38.796620" lon="-6.164420">
        <ele>432.7</ele>
        <time>2009-10-10T13:09:07Z</time>
      </trkpt>
      <trkpt lat="38.797110" lon="-6.164430">
        <ele>430.3</ele>
        <time>2009-10-10T13:09:41Z</time>
      </trkpt>
      <trkpt lat="38.797190" lon="-6.164450">
        <ele>430.3</ele>
        <time>2009-10-10T13:09:46Z</time>
      </trkpt>
      <trkpt lat="38.797320" lon="-6.164460">
        <ele>428.4</ele>
        <time>2009-10-10T13:09:57Z</time>
      </trkpt>
      <trkpt lat="38.797850" lon="-6.164390">
        <ele>427.0</ele>
        <time>2009-10-10T13:10:31Z</time>
      </trkpt>
      <trkpt lat="38.798020" lon="-6.164370">
        <ele>424.1</ele>
        <time>2009-10-10T13:10:42Z</time>
      </trkpt>
      <trkpt lat="38.798250" lon="-6.164350">
        <ele>423.6</ele>
        <time>2009-10-10T13:10:57Z</time>
      </trkpt>
      <trkpt lat="38.798670" lon="-6.164460">
        <ele>421.7</ele>
        <time>2009-10-10T13:11:26Z</time>
      </trkpt>
      <trkpt lat="38.799170" lon="-6.164640">
        <ele>420.2</ele>
        <time>2009-10-10T13:12:01Z</time>
      </trkpt>
      <trkpt lat="38.799590" lon="-6.164800">
        <ele>416.4</ele>
        <time>2009-10-10T13:12:31Z</time>
      </trkpt>
      <trkpt lat="38.799810" lon="-6.164860">
        <ele>414.5</ele>
        <time>2009-10-10T13:12:46Z</time>
      </trkpt>
      <trkpt lat="38.800100" lon="-6.164920">
        <ele>412.5</ele>
        <time>2009-10-10T13:13:06Z</time>
      </trkpt>
      <trkpt lat="38.800330" lon="-6.164980">
        <ele>409.2</ele>
        <time>2009-10-10T13:13:26Z</time>
      </trkpt>
      <trkpt lat="38.800790" lon="-6.165170">
        <ele>406.8</ele>
        <time>2009-10-10T13:13:56Z</time>
      </trkpt>
      <trkpt lat="38.801030" lon="-6.165220">
        <ele>404.9</ele>
        <time>2009-10-10T13:14:11Z</time>
      </trkpt>
      <trkpt lat="38.801380" lon="-6.165400">
        <ele>402.5</ele>
        <time>2009-10-10T13:14:37Z</time>
      </trkpt>
      <trkpt lat="38.801590" lon="-6.165470">
        <ele>402.0</ele>
        <time>2009-10-10T13:14:51Z</time>
      </trkpt>
      <trkpt lat="38.801800" lon="-6.165520">
        <ele>401.5</ele>
        <time>2009-10-10T13:15:06Z</time>
      </trkpt>
      <trkpt lat="38.802260" lon="-6.165890">
        <ele>400.0</ele>
        <time>2009-10-10T13:15:47Z</time>
      </trkpt>
      <trkpt lat="38.802540" lon="-6.166010">
        <ele>396.7</ele>
        <time>2009-10-10T13:16:07Z</time>
      </trkpt>
      <trkpt lat="38.802930" lon="-6.166190">
        <ele>393.3</ele>
        <time>2009-10-10T13:16:38Z</time>
      </trkpt>
      <trkpt lat="38.803290" lon="-6.166390">
        <ele>392.8</ele>
        <time>2009-10-10T13:17:04Z</time>
      </trkpt>
      <trkpt lat="38.803730" lon="-6.166720">
        <ele>392.8</ele>
        <time>2009-10-10T13:17:39Z</time>
      </trkpt>
      <trkpt lat="38.803980" lon="-6.167150">
        <ele>392.4</ele>
        <time>2009-10-10T13:18:09Z</time>
      </trkpt>
      <trkpt lat="38.804150" lon="-6.167560">
        <ele>392.4</ele>
        <time>2009-10-10T13:18:34Z</time>
      </trkpt>
      <trkpt lat="38.804490" lon="-6.167910">
        <ele>392.4</ele>
        <time>2009-10-10T13:19:04Z</time>
      </trkpt>
      <trkpt lat="38.804570" lon="-6.168050">
        <ele>391.4</ele>
        <time>2009-10-10T13:19:13Z</time>
      </trkpt>
      <trkpt lat="38.804730" lon="-6.168450">
        <ele>391.4</ele>
        <time>2009-10-10T13:19:39Z</time>
      </trkpt>
      <trkpt lat="38.804800" lon="-6.168610">
        <ele>391.4</ele>
        <time>2009-10-10T13:19:48Z</time>
      </trkpt>
      <trkpt lat="38.805080" lon="-6.169010">
        <ele>391.9</ele>
        <time>2009-10-10T13:20:18Z</time>
      </trkpt>
      <trkpt lat="38.805400" lon="-6.169610">
        <ele>392.8</ele>
        <time>2009-10-10T13:20:59Z</time>
      </trkpt>
      <trkpt lat="38.805620" lon="-6.170050">
        <ele>392.8</ele>
        <time>2009-10-10T13:21:28Z</time>
      </trkpt>
      <trkpt lat="38.805690" lon="-6.170260">
        <ele>392.4</ele>
        <time>2009-10-10T13:21:43Z</time>
      </trkpt>
      <trkpt lat="38.805990" lon="-6.170960">
        <ele>392.4</ele>
        <time>2009-10-10T13:22:29Z</time>
      </trkpt>
      <trkpt lat="38.806040" lon="-6.171140">
        <ele>391.9</ele>
        <time>2009-10-10T13:22:39Z</time>
      </trkpt>
      <trkpt lat="38.806310" lon="-6.171680">
        <ele>392.8</ele>
        <time>2009-10-10T13:23:14Z</time>
      </trkpt>
      <trkpt lat="38.806380" lon="-6.171910">
        <ele>393.8</ele>
        <time>2009-10-10T13:23:29Z</time>
      </trkpt>
      <trkpt lat="38.806670" lon="-6.172390">
        <ele>394.3</ele>
        <time>2009-10-10T13:24:04Z</time>
      </trkpt>
      <trkpt lat="38.806790" lon="-6.172500">
        <ele>394.3</ele>
        <time>2009-10-10T13:24:13Z</time>
      </trkpt>
      <trkpt lat="38.807170" lon="-6.172790">
        <ele>390.4</ele>
        <time>2009-10-10T13:24:44Z</time>
      </trkpt>
      <trkpt lat="38.807430" lon="-6.173030">
        <ele>387.1</ele>
        <time>2009-10-10T13:25:03Z</time>
      </trkpt>
      <trkpt lat="38.807480" lon="-6.173100">
        <ele>387.6</ele>
        <time>2009-10-10T13:25:08Z</time>
      </trkpt>
      <trkpt lat="38.807790" lon="-6.173500">
        <ele>386.6</ele>
        <time>2009-10-10T13:25:38Z</time>
      </trkpt>
      <trkpt lat="38.807910" lon="-6.173820">
        <ele>386.6</ele>
        <time>2009-10-10T13:25:58Z</time>
      </trkpt>
      <trkpt lat="38.808110" lon="-6.174060">
        <ele>386.6</ele>
        <time>2009-10-10T13:26:17Z</time>
      </trkpt>
      <trkpt lat="38.808160" lon="-6.174200">
        <ele>388.0</ele>
        <time>2009-10-10T13:26:28Z</time>
      </trkpt>
      <trkpt lat="38.808310" lon="-6.174480">
        <ele>389.5</ele>
        <time>2009-10-10T13:26:47Z</time>
      </trkpt>
      <trkpt lat="38.808440" lon="-6.174670">
        <ele>388.0</ele>
        <time>2009-10-10T13:27:03Z</time>
      </trkpt>
      <trkpt lat="38.808580" lon="-6.174780">
        <ele>387.1</ele>
        <time>2009-10-10T13:27:13Z</time>
      </trkpt>
      <trkpt lat="38.808730" lon="-6.174990">
        <ele>385.1</ele>
        <time>2009-10-10T13:27:27Z</time>
      </trkpt>
      <trkpt lat="38.809050" lon="-6.175460">
        <ele>382.2</ele>
        <time>2009-10-10T13:28:03Z</time>
      </trkpt>
      <trkpt lat="38.809220" lon="-6.175840">
        <ele>382.2</ele>
        <time>2009-10-10T13:28:23Z</time>
      </trkpt>
      <trkpt lat="38.809580" lon="-6.176550">
        <ele>381.8</ele>
        <time>2009-10-10T13:29:07Z</time>
      </trkpt>
      <trkpt lat="38.809680" lon="-6.176840">
        <ele>382.2</ele>
        <time>2009-10-10T13:29:22Z</time>
      </trkpt>
      <trkpt lat="38.809830" lon="-6.177450">
        <ele>382.2</ele>
        <time>2009-10-10T13:29:57Z</time>
      </trkpt>
      <trkpt lat="38.809950" lon="-6.177940">
        <ele>381.8</ele>
        <time>2009-10-10T13:30:23Z</time>
      </trkpt>
      <trkpt lat="38.809970" lon="-6.178100">
        <ele>381.8</ele>
        <time>2009-10-10T13:30:32Z</time>
      </trkpt>
      <trkpt lat="38.810060" lon="-6.178570">
        <ele>383.2</ele>
        <time>2009-10-10T13:30:58Z</time>
      </trkpt>
      <trkpt lat="38.810150" lon="-6.178970">
        <ele>384.7</ele>
        <time>2009-10-10T13:31:17Z</time>
      </trkpt>
      <trkpt lat="38.810240" lon="-6.179250">
        <ele>386.1</ele>
        <time>2009-10-10T13:31:33Z</time>
      </trkpt>
      <trkpt lat="38.810170" lon="-6.179770">
        <ele>387.1</ele>
        <time>2009-10-10T13:32:03Z</time>
      </trkpt>
      <trkpt lat="38.810310" lon="-6.180240">
        <ele>388.0</ele>
        <time>2009-10-10T13:32:42Z</time>
      </trkpt>
      <trkpt lat="38.810380" lon="-6.180780">
        <ele>390.0</ele>
        <time>2009-10-10T13:33:17Z</time>
      </trkpt>
      <trkpt lat="38.810400" lon="-6.181030">
        <ele>393.8</ele>
        <time>2009-10-10T13:33:32Z</time>
      </trkpt>
      <trkpt lat="38.810420" lon="-6.181100">
        <ele>393.8</ele>
        <time>2009-10-10T13:33:37Z</time>
      </trkpt>
      <trkpt lat="38.810450" lon="-6.181290">
        <ele>395.2</ele>
        <time>2009-10-10T13:33:48Z</time>
      </trkpt>
      <trkpt lat="38.810610" lon="-6.181870">
        <ele>396.2</ele>
        <time>2009-10-10T13:34:22Z</time>
      </trkpt>
      <trkpt lat="38.810630" lon="-6.182060">
        <ele>398.6</ele>
        <time>2009-10-10T13:34:42Z</time>
      </trkpt>
      <trkpt lat="38.810640" lon="-6.182040">
        <ele>399.1</ele>
        <time>2009-10-10T13:35:58Z</time>
      </trkpt>
      <trkpt lat="38.810680" lon="-6.182090">
        <ele>399.1</ele>
        <time>2009-10-10T13:36:34Z</time>
      </trkpt>
      <trkpt lat="38.810690" lon="-6.182090">
        <ele>399.1</ele>
        <time>2009-10-10T13:36:38Z</time>
      </trkpt>
      <trkpt lat="38.810700" lon="-6.182090">
        <ele>398.1</ele>
        <time>2009-10-10T13:37:00Z</time>
      </trkpt>
      <trkpt lat="38.810710" lon="-6.182150">
        <ele>399.1</ele>
        <time>2009-10-10T13:37:35Z</time>
      </trkpt>
      <trkpt lat="38.810750" lon="-6.182520">
        <ele>401.5</ele>
        <time>2009-10-10T13:37:59Z</time>
      </trkpt>
      <trkpt lat="38.810820" lon="-6.182860">
        <ele>404.9</ele>
        <time>2009-10-10T13:38:20Z</time>
      </trkpt>
      <trkpt lat="38.810870" lon="-6.182940">
        <ele>404.9</ele>
        <time>2009-10-10T13:38:25Z</time>
      </trkpt>
      <trkpt lat="38.810960" lon="-6.183600">
        <ele>407.2</ele>
        <time>2009-10-10T13:39:00Z</time>
      </trkpt>
      <trkpt lat="38.811070" lon="-6.184100">
        <ele>407.2</ele>
        <time>2009-10-10T13:39:30Z</time>
      </trkpt>
      <trkpt lat="38.811150" lon="-6.184640">
        <ele>407.7</ele>
        <time>2009-10-10T13:39:59Z</time>
      </trkpt>
      <trkpt lat="38.811160" lon="-6.184730">
        <ele>407.7</ele>
        <time>2009-10-10T13:40:05Z</time>
      </trkpt>
      <trkpt lat="38.811310" lon="-6.185270">
        <ele>405.3</ele>
        <time>2009-10-10T13:40:35Z</time>
      </trkpt>
      <trkpt lat="38.811360" lon="-6.185510">
        <ele>403.9</ele>
        <time>2009-10-10T13:40:49Z</time>
      </trkpt>
      <trkpt lat="38.811530" lon="-6.185950">
        <ele>401.5</ele>
        <time>2009-10-10T13:41:15Z</time>
      </trkpt>
      <trkpt lat="38.811500" lon="-6.186340">
        <ele>399.1</ele>
        <time>2009-10-10T13:41:34Z</time>
      </trkpt>
      <trkpt lat="38.811620" lon="-6.186750">
        <ele>395.7</ele>
        <time>2009-10-10T13:42:00Z</time>
      </trkpt>
      <trkpt lat="38.811620" lon="-6.186810">
        <ele>394.3</ele>
        <time>2009-10-10T13:42:05Z</time>
      </trkpt>
      <trkpt lat="38.811610" lon="-6.187120">
        <ele>391.4</ele>
        <time>2009-10-10T13:42:29Z</time>
      </trkpt>
      <trkpt lat="38.811520" lon="-6.187630">
        <ele>387.1</ele>
        <time>2009-10-10T13:42:59Z</time>
      </trkpt>
      <trkpt lat="38.811470" lon="-6.187790">
        <ele>384.2</ele>
        <time>2009-10-10T13:43:10Z</time>
      </trkpt>
      <trkpt lat="38.811450" lon="-6.187880">
        <ele>384.2</ele>
        <time>2009-10-10T13:43:15Z</time>
      </trkpt>
      <trkpt lat="38.811210" lon="-6.188440">
        <ele>381.3</ele>
        <time>2009-10-10T13:43:49Z</time>
      </trkpt>
      <trkpt lat="38.811180" lon="-6.188530">
        <ele>381.3</ele>
        <time>2009-10-10T13:43:54Z</time>
      </trkpt>
      <trkpt lat="38.811090" lon="-6.189000">
        <ele>377.9</ele>
        <time>2009-10-10T13:44:24Z</time>
      </trkpt>
      <trkpt lat="38.811230" lon="-6.189190">
        <ele>374.1</ele>
        <time>2009-10-10T13:44:40Z</time>
      </trkpt>
      <trkpt lat="38.811270" lon="-6.189330">
        <ele>373.1</ele>
        <time>2009-10-10T13:44:50Z</time>
      </trkpt>
      <trkpt lat="38.811270" lon="-6.189320">
        <ele>372.6</ele>
        <time>2009-10-10T13:45:49Z</time>
      </trkpt>
      <trkpt lat="38.811290" lon="-6.189350">
        <ele>372.6</ele>
        <time>2009-10-10T13:47:26Z</time>
      </trkpt>
      <trkpt lat="38.811320" lon="-6.189340">
        <ele>371.7</ele>
        <time>2009-10-10T13:48:31Z</time>
      </trkpt>
      <trkpt lat="38.811340" lon="-6.189420">
        <ele>371.7</ele>
        <time>2009-10-10T13:48:57Z</time>
      </trkpt>
      <trkpt lat="38.811500" lon="-6.190640">
        <ele>379.4</ele>
        <time>2009-10-10T13:49:21Z</time>
      </trkpt>
      <trkpt lat="38.811590" lon="-6.190960">
        <ele>382.7</ele>
        <time>2009-10-10T13:49:26Z</time>
      </trkpt>
      <trkpt lat="38.811680" lon="-6.191260">
        <ele>385.6</ele>
        <time>2009-10-10T13:49:32Z</time>
      </trkpt>
      <trkpt lat="38.811650" lon="-6.192010">
        <ele>392.4</ele>
        <time>2009-10-10T13:49:47Z</time>
      </trkpt>
      <trkpt lat="38.811360" lon="-6.192410">
        <ele>393.8</ele>
        <time>2009-10-10T13:49:56Z</time>
      </trkpt>
      <trkpt lat="38.811310" lon="-6.193400">
        <ele>390.0</ele>
        <time>2009-10-10T14:01:22Z</time>
      </trkpt>
      <trkpt lat="38.811180" lon="-6.194400">
        <ele>388.5</ele>
        <time>2009-10-10T14:01:42Z</time>
      </trkpt>
      <trkpt lat="38.811120" lon="-6.195740">
        <ele>390.4</ele>
        <time>2009-10-10T14:02:02Z</time>
      </trkpt>
      <trkpt lat="38.811060" lon="-6.197110">
        <ele>389.0</ele>
        <time>2009-10-10T14:02:23Z</time>
      </trkpt>
      <trkpt lat="38.811040" lon="-6.197450">
        <ele>387.6</ele>
        <time>2009-10-10T14:02:28Z</time>
      </trkpt>
      <trkpt lat="38.811110" lon="-6.198580">
        <ele>385.1</ele>
        <time>2009-10-10T14:02:43Z</time>
      </trkpt>
      <trkpt lat="38.811350" lon="-6.199120">
        <ele>381.3</ele>
        <time>2009-10-10T14:02:52Z</time>
      </trkpt>
      <trkpt lat="38.811430" lon="-6.199570">
        <ele>377.9</ele>
        <time>2009-10-10T14:02:59Z</time>
      </trkpt>
      <trkpt lat="38.811520" lon="-6.200270">
        <ele>374.1</ele>
        <time>2009-10-10T14:03:10Z</time>
      </trkpt>
      <trkpt lat="38.811600" lon="-6.200630">
        <ele>373.1</ele>
        <time>2009-10-10T14:03:14Z</time>
      </trkpt>
      <trkpt lat="38.811760" lon="-6.201360">
        <ele>366.9</ele>
        <time>2009-10-10T14:03:30Z</time>
      </trkpt>
      <trkpt lat="38.811980" lon="-6.201580">
        <ele>365.9</ele>
        <time>2009-10-10T14:03:40Z</time>
      </trkpt>
      <trkpt lat="38.812380" lon="-6.202140">
        <ele>362.1</ele>
        <time>2009-10-10T14:03:53Z</time>
      </trkpt>
      <trkpt lat="38.812480" lon="-6.202310">
        <ele>362.1</ele>
        <time>2009-10-10T14:03:56Z</time>
      </trkpt>
      <trkpt lat="38.812630" lon="-6.202630">
        <ele>361.1</ele>
        <time>2009-10-10T14:04:01Z</time>
      </trkpt>
      <trkpt lat="38.813090" lon="-6.203480">
        <ele>364.5</ele>
        <time>2009-10-10T14:04:16Z</time>
      </trkpt>
      <trkpt lat="38.813290" lon="-6.204650">
        <ele>369.3</ele>
        <time>2009-10-10T14:04:31Z</time>
      </trkpt>
      <trkpt lat="38.813380" lon="-6.205380">
        <ele>372.6</ele>
        <time>2009-10-10T14:04:47Z</time>
      </trkpt>
      <trkpt lat="38.813280" lon="-6.205540">
        <ele>372.6</ele>
        <time>2009-10-10T14:04:58Z</time>
      </trkpt>
      <trkpt lat="38.813120" lon="-6.206000">
        <ele>373.1</ele>
        <time>2009-10-10T14:05:07Z</time>
      </trkpt>
      <trkpt lat="38.813250" lon="-6.206600">
        <ele>371.7</ele>
        <time>2009-10-10T14:05:15Z</time>
      </trkpt>
      <trkpt lat="38.813360" lon="-6.207010">
        <ele>370.2</ele>
        <time>2009-10-10T14:05:21Z</time>
      </trkpt>
      <trkpt lat="38.813440" lon="-6.207150">
        <ele>369.8</ele>
        <time>2009-10-10T14:05:22Z</time>
      </trkpt>
      <trkpt lat="38.813460" lon="-6.207320">
        <ele>368.3</ele>
        <time>2009-10-10T14:05:25Z</time>
      </trkpt>
      <trkpt lat="38.813630" lon="-6.207640">
        <ele>365.0</ele>
        <time>2009-10-10T14:05:29Z</time>
      </trkpt>
      <trkpt lat="38.813730" lon="-6.207730">
        <ele>363.0</ele>
        <time>2009-10-10T14:05:32Z</time>
      </trkpt>
      <trkpt lat="38.813850" lon="-6.207920">
        <ele>362.6</ele>
        <time>2009-10-10T14:05:36Z</time>
      </trkpt>
      <trkpt lat="38.814180" lon="-6.208250">
        <ele>359.2</ele>
        <time>2009-10-10T14:05:42Z</time>
      </trkpt>
      <trkpt lat="38.814390" lon="-6.208470">
        <ele>357.3</ele>
        <time>2009-10-10T14:05:48Z</time>
      </trkpt>
      <trkpt lat="38.814650" lon="-6.208810">
        <ele>355.3</ele>
        <time>2009-10-10T14:05:53Z</time>
      </trkpt>
      <trkpt lat="38.814640" lon="-6.209070">
        <ele>356.3</ele>
        <time>2009-10-10T14:06:01Z</time>
      </trkpt>
      <trkpt lat="38.814620" lon="-6.209060">
        <ele>360.2</ele>
        <time>2009-10-10T14:06:05Z</time>
      </trkpt>
      <trkpt lat="38.814630" lon="-6.209070">
        <ele>356.8</ele>
        <time>2009-10-10T14:06:07Z</time>
      </trkpt>
      <trkpt lat="38.814640" lon="-6.209090">
        <ele>357.3</ele>
        <time>2009-10-10T14:06:16Z</time>
      </trkpt>
      <trkpt lat="38.814670" lon="-6.209270">
        <ele>358.2</ele>
        <time>2009-10-10T14:06:23Z</time>
      </trkpt>
      <trkpt lat="38.814700" lon="-6.209500">
        <ele>357.3</ele>
        <time>2009-10-10T14:06:27Z</time>
      </trkpt>
      <trkpt lat="38.814990" lon="-6.210260">
        <ele>353.9</ele>
        <time>2009-10-10T14:06:36Z</time>
      </trkpt>
      <trkpt lat="38.815060" lon="-6.210520">
        <ele>351.0</ele>
        <time>2009-10-10T14:06:39Z</time>
      </trkpt>
      <trkpt lat="38.815200" lon="-6.210820">
        <ele>348.6</ele>
        <time>2009-10-10T14:06:45Z</time>
      </trkpt>
      <trkpt lat="38.815320" lon="-6.210990">
        <ele>347.7</ele>
        <time>2009-10-10T14:06:50Z</time>
      </trkpt>
      <trkpt lat="38.815360" lon="-6.211070">
        <ele>347.2</ele>
        <time>2009-10-10T14:06:54Z</time>
      </trkpt>
      <trkpt lat="38.815420" lon="-6.211190">
        <ele>346.2</ele>
        <time>2009-10-10T14:06:57Z</time>
      </trkpt>
      <trkpt lat="38.815480" lon="-6.211370">
        <ele>343.8</ele>
        <time>2009-10-10T14:07:01Z</time>
      </trkpt>
      <trkpt lat="38.815620" lon="-6.211770">
        <ele>341.4</ele>
        <time>2009-10-10T14:07:09Z</time>
      </trkpt>
      <trkpt lat="38.815650" lon="-6.211850">
        <ele>341.4</ele>
        <time>2009-10-10T14:07:10Z</time>
      </trkpt>
      <trkpt lat="38.815720" lon="-6.211940">
        <ele>340.9</ele>
        <time>2009-10-10T14:07:17Z</time>
      </trkpt>
      <trkpt lat="38.815700" lon="-6.211950">
        <ele>340.4</ele>
        <time>2009-10-10T14:07:20Z</time>
      </trkpt>
      <trkpt lat="38.815860" lon="-6.212260">
        <ele>339.5</ele>
        <time>2009-10-10T14:07:26Z</time>
      </trkpt>
      <trkpt lat="38.815970" lon="-6.212580">
        <ele>338.1</ele>
        <time>2009-10-10T14:07:30Z</time>
      </trkpt>
      <trkpt lat="38.816050" lon="-6.213070">
        <ele>335.6</ele>
        <time>2009-10-10T14:07:37Z</time>
      </trkpt>
      <trkpt lat="38.816010" lon="-6.213290">
        <ele>334.2</ele>
        <time>2009-10-10T14:07:41Z</time>
      </trkpt>
      <trkpt lat="38.816000" lon="-6.213330">
        <ele>333.7</ele>
        <time>2009-10-10T14:07:53Z</time>
      </trkpt>
      <trkpt lat="38.816160" lon="-6.213400">
        <ele>335.2</ele>
        <time>2009-10-10T14:08:00Z</time>
      </trkpt>
      <trkpt lat="38.816480" lon="-6.213540">
        <ele>335.2</ele>
        <time>2009-10-10T14:08:14Z</time>
      </trkpt>
      <trkpt lat="38.816540" lon="-6.213570">
        <ele>334.7</ele>
        <time>2009-10-10T14:08:16Z</time>
      </trkpt>
      <trkpt lat="38.816650" lon="-6.213650">
        <ele>333.7</ele>
        <time>2009-10-10T14:08:23Z</time>
      </trkpt>
      <trkpt lat="38.816920" lon="-6.213580">
        <ele>331.8</ele>
        <time>2009-10-10T14:08:34Z</time>
      </trkpt>
      <trkpt lat="38.817010" lon="-6.213430">
        <ele>329.9</ele>
        <time>2009-10-10T14:08:42Z</time>
      </trkpt>
      <trkpt lat="38.817560" lon="-6.213700">
        <ele>326.0</ele>
        <time>2009-10-10T14:08:57Z</time>
      </trkpt>
      <trkpt lat="38.817660" lon="-6.213760">
        <ele>324.6</ele>
        <time>2009-10-10T14:09:00Z</time>
      </trkpt>
      <trkpt lat="38.817870" lon="-6.213880">
        <ele>320.7</ele>
        <time>2009-10-10T14:09:05Z</time>
      </trkpt>
      <trkpt lat="38.818050" lon="-6.213980">
        <ele>319.3</ele>
        <time>2009-10-10T14:09:10Z</time>
      </trkpt>
      <trkpt lat="38.818273" lon="-6.214289">
        <ele>314.0</ele>
        <time>2009-10-10T14:09:21Z</time>
      </trkpt>
      <trkpt lat="38.818310" lon="-6.214420">
        <ele>312.6</ele>
        <time>2009-10-10T14:09:25Z</time>
      </trkpt>
      <trkpt lat="38.818310" lon="-6.214610">
        <ele>309.7</ele>
        <time>2009-10-10T14:09:29Z</time>
      </trkpt>
      <trkpt lat="38.818460" lon="-6.214800">
        <ele>307.3</ele>
        <time>2009-10-10T14:09:40Z</time>
      </trkpt>
      <trkpt lat="38.818560" lon="-6.214860">
        <ele>306.3</ele>
        <time>2009-10-10T14:09:41Z</time>
      </trkpt>
      <trkpt lat="38.818610" lon="-6.214890">
        <ele>305.8</ele>
        <time>2009-10-10T14:09:44Z</time>
      </trkpt>
      <trkpt lat="38.818590" lon="-6.215370">
        <ele>304.9</ele>
        <time>2009-10-10T14:10:00Z</time>
      </trkpt>
      <trkpt lat="38.818470" lon="-6.215740">
        <ele>303.4</ele>
        <time>2009-10-10T14:10:21Z</time>
      </trkpt>
      <trkpt lat="38.818450" lon="-6.216310">
        <ele>299.1</ele>
        <time>2009-10-10T14:10:31Z</time>
      </trkpt>
      <trkpt lat="38.818320" lon="-6.216740">
        <ele>295.7</ele>
        <time>2009-10-10T14:10:41Z</time>
      </trkpt>
      <trkpt lat="38.818400" lon="-6.217030">
        <ele>294.8</ele>
        <time>2009-10-10T14:10:46Z</time>
      </trkpt>
      <trkpt lat="38.818620" lon="-6.217580">
        <ele>290.9</ele>
        <time>2009-10-10T14:10:54Z</time>
      </trkpt>
      <trkpt lat="38.818670" lon="-6.217970">
        <ele>288.5</ele>
        <time>2009-10-10T14:11:09Z</time>
      </trkpt>
      <trkpt lat="38.818780" lon="-6.217910">
        <ele>289.0</ele>
        <time>2009-10-10T14:11:29Z</time>
      </trkpt>
    </trkseg>
  </trk></gpx>